DAL8 RJTT-KLAX
Flight info
| Callsign | DAL8 |
|---|---|
| Flight time | 9h 30m |
| Altitude | 37000 |
| Route | INUBO Y808 NOLAX Y814 AVBET OTR11 LEPKI 40N160E 42N170E 42N180W/N0488F390 40N170W 39N160W 39N150W 39N140W/N0480F410 38N130W DCT ALLBE DCT PIRAT DCT BURGL IRNMN2 |
| Aircraft | A359/H-SDE2E3GHIJ1J3J4J5LM1ORWXY/LB1D1 |
Departure
| Time | 2026-05-05 14:56 |
|---|---|
| Airport | Tokyo Haneda International Airport (RJTT) |
Arrival
| Time | 2026-05-06 00:27 |
|---|---|
| Airport | Los Angeles International Airport (KLAX) |
| Time | Latitude | Longitude | Altitude | Speed | Heading |
|---|---|---|---|---|---|
| 2026-05-05 13:46 | 35.54993 | 139.76955 | 29 ft | 0 kts | 147° |
| 2026-05-05 14:40 | 35.54997 | 139.76952 | 29 ft | 3 kts | 147° |
| 2026-05-05 14:40 | 35.55020 | 139.76937 | 28 ft | 4 kts | 153° |
| 2026-05-05 14:40 | 35.55041 | 139.76924 | 29 ft | 4 kts | 170° |
| 2026-05-05 14:41 | 35.55062 | 139.76929 | 28 ft | 4 kts | 231° |
| 2026-05-05 14:41 | 35.55076 | 139.76956 | 29 ft | 2 kts | 240° |
| 2026-05-05 14:41 | 35.55079 | 139.76963 | 29 ft | 0 kts | 240° |
| 2026-05-05 14:46 | 35.55078 | 139.76962 | 29 ft | 1 kts | 240° |
| 2026-05-05 14:46 | 35.55057 | 139.76914 | 28 ft | 10 kts | 240° |
| 2026-05-05 14:46 | 35.55018 | 139.76834 | 29 ft | 11 kts | 240° |
| 2026-05-05 14:46 | 35.54977 | 139.76745 | 29 ft | 13 kts | 240° |
| 2026-05-05 14:47 | 35.54973 | 139.76645 | 29 ft | 12 kts | 300° |
| 2026-05-05 14:47 | 35.55035 | 139.76597 | 29 ft | 9 kts | 349° |
| 2026-05-05 14:47 | 35.55100 | 139.76596 | 29 ft | 10 kts | 1° |
| 2026-05-05 14:47 | 35.55168 | 139.76628 | 29 ft | 11 kts | 31° |
| 2026-05-05 14:48 | 35.55236 | 139.76683 | 29 ft | 12 kts | 34° |
| 2026-05-05 14:48 | 35.55309 | 139.76746 | 29 ft | 14 kts | 36° |
| 2026-05-05 14:48 | 35.55389 | 139.76817 | 29 ft | 15 kts | 35° |
| 2026-05-05 14:48 | 35.55476 | 139.76891 | 28 ft | 16 kts | 34° |
| 2026-05-05 14:49 | 35.55570 | 139.76970 | 28 ft | 17 kts | 34° |
| 2026-05-05 14:49 | 35.55622 | 139.77014 | 29 ft | 0 kts | 36° |
| 2026-05-05 14:50 | 35.55643 | 139.77032 | 29 ft | 8 kts | 36° |
| 2026-05-05 14:50 | 35.55708 | 139.77089 | 31 ft | 15 kts | 36° |
| 2026-05-05 14:50 | 35.55803 | 139.77169 | 29 ft | 18 kts | 34° |
| 2026-05-05 14:51 | 35.55905 | 139.77262 | 29 ft | 18 kts | 44° |
| 2026-05-05 14:51 | 35.55976 | 139.77394 | 29 ft | 19 kts | 60° |
| 2026-05-05 14:51 | 35.56044 | 139.77536 | 29 ft | 20 kts | 59° |
| 2026-05-05 14:51 | 35.56113 | 139.77682 | 28 ft | 20 kts | 60° |
| 2026-05-05 14:52 | 35.56184 | 139.77831 | 29 ft | 16 kts | 59° |
| 2026-05-05 14:52 | 35.56242 | 139.77949 | 29 ft | 17 kts | 60° |
| 2026-05-05 14:52 | 35.56300 | 139.78076 | 29 ft | 18 kts | 61° |
| 2026-05-05 14:52 | 35.56363 | 139.78208 | 29 ft | 18 kts | 58° |
| 2026-05-05 14:53 | 35.56428 | 139.78346 | 29 ft | 19 kts | 60° |
| 2026-05-05 14:53 | 35.56492 | 139.78481 | 29 ft | 17 kts | 59° |
| 2026-05-05 14:53 | 35.56523 | 139.78544 | 29 ft | 0 kts | 59° |
| 2026-05-05 14:54 | 35.56529 | 139.78557 | 29 ft | 4 kts | 59° |
| 2026-05-05 14:55 | 35.56552 | 139.78606 | 29 ft | 9 kts | 59° |
| 2026-05-05 14:55 | 35.56559 | 139.78670 | 30 ft | 7 kts | 118° |
| 2026-05-05 14:55 | 35.56534 | 139.78697 | 29 ft | 0 kts | 150° |
| 2026-05-05 14:55 | 35.56489 | 139.78728 | 30 ft | 30 kts | 150° |
| 2026-05-05 14:56 | 35.56108 | 139.78999 | 30 ft | 94 kts | 150° |
| 2026-05-05 14:56 | 35.55381 | 139.79513 | 30 ft | 146 kts | 150° |
| 2026-05-05 14:56 | 35.54398 | 139.80202 | 357 ft | 162 kts | 151° |
| 2026-05-05 14:56 | 35.53504 | 139.80957 | 1041 ft | 158 kts | 133° |
| 2026-05-05 14:57 | 35.52951 | 139.82130 | 1413 ft | 162 kts | 117° |
| 2026-05-05 14:57 | 35.52483 | 139.83399 | 1765 ft | 165 kts | 118° |
| 2026-05-05 14:57 | 35.51981 | 139.84657 | 2191 ft | 163 kts | 121° |
| 2026-05-05 14:57 | 35.51455 | 139.85877 | 2626 ft | 161 kts | 123° |
| 2026-05-05 14:58 | 35.50914 | 139.87072 | 3051 ft | 159 kts | 124° |
| 2026-05-05 14:58 | 35.50340 | 139.88295 | 3283 ft | 172 kts | 125° |
| 2026-05-05 14:58 | 35.49707 | 139.89618 | 3473 ft | 188 kts | 124° |
| 2026-05-05 14:58 | 35.49012 | 139.91064 | 3652 ft | 207 kts | 124° |
| 2026-05-05 14:59 | 35.48263 | 139.92665 | 3844 ft | 225 kts | 121° |
| 2026-05-05 14:59 | 35.47879 | 139.94615 | 4018 ft | 251 kts | 89° |
| 2026-05-05 14:59 | 35.48523 | 139.96671 | 4324 ft | 271 kts | 54° |
| 2026-05-05 14:59 | 35.49805 | 139.98398 | 4852 ft | 276 kts | 47° |
| 2026-05-05 15:00 | 35.51164 | 140.00080 | 5388 ft | 279 kts | 47° |
| 2026-05-05 15:00 | 35.52061 | 140.01213 | 5765 ft | 280 kts | 47° |
| 2026-05-05 15:00 | 35.53865 | 140.03543 | 6536 ft | 283 kts | 47° |
| 2026-05-05 15:00 | 35.55373 | 140.05105 | 7052 ft | 286 kts | 30° |
| 2026-05-05 15:01 | 35.57253 | 140.05827 | 7590 ft | 286 kts | 2° |
| 2026-05-05 15:01 | 35.59192 | 140.05429 | 8108 ft | 284 kts | 334° |
| 2026-05-05 15:01 | 35.60768 | 140.04014 | 8603 ft | 282 kts | 308° |
| 2026-05-05 15:01 | 35.61718 | 140.01920 | 9090 ft | 282 kts | 291° |
| 2026-05-05 15:02 | 35.62670 | 139.99806 | 9569 ft | 286 kts | 308° |
| 2026-05-05 15:02 | 35.64237 | 139.98304 | 10094 ft | 290 kts | 334° |
| 2026-05-05 15:02 | 35.66228 | 139.97688 | 10385 ft | 303 kts | 352° |
| 2026-05-05 15:02 | 35.68368 | 139.97424 | 10606 ft | 315 kts | 353° |
| 2026-05-05 15:03 | 35.70594 | 139.97176 | 10823 ft | 327 kts | 353° |
| 2026-05-05 15:03 | 35.72897 | 139.96872 | 11032 ft | 338 kts | 349° |
| 2026-05-05 15:03 | 35.75193 | 139.96108 | 11237 ft | 347 kts | 339° |
| 2026-05-05 15:03 | 35.77489 | 139.95061 | 11442 ft | 357 kts | 337° |
| 2026-05-05 15:04 | 35.79825 | 139.93954 | 11760 ft | 362 kts | 337° |
| 2026-05-05 15:04 | 35.82187 | 139.92837 | 12198 ft | 364 kts | 337° |
| 2026-05-05 15:04 | 35.84559 | 139.91718 | 12629 ft | 367 kts | 337° |
| 2026-05-05 15:04 | 35.86953 | 139.90587 | 13013 ft | 370 kts | 337° |
| 2026-05-05 15:05 | 35.91789 | 139.88313 | 13798 ft | 375 kts | 337° |
| 2026-05-05 15:05 | 35.94233 | 139.87165 | 14195 ft | 377 kts | 337° |
| 2026-05-05 15:05 | 35.96657 | 139.86104 | 14562 ft | 381 kts | 342° |
| 2026-05-05 15:06 | 35.98395 | 139.85723 | 14812 ft | 385 kts | 354° |
| 2026-05-05 15:06 | 36.01922 | 139.86371 | 15317 ft | 394 kts | 17° |
| 2026-05-05 15:06 | 36.04505 | 139.87542 | 15694 ft | 397 kts | 19° |
| 2026-05-05 15:06 | 36.07090 | 139.88778 | 16065 ft | 399 kts | 19° |
| 2026-05-05 15:07 | 36.08844 | 139.89614 | 16318 ft | 401 kts | 19° |
| 2026-05-05 15:07 | 36.11457 | 139.90852 | 16688 ft | 403 kts | 19° |
| 2026-05-05 15:07 | 36.14087 | 139.92092 | 17056 ft | 406 kts | 19° |
| 2026-05-05 15:07 | 36.16677 | 139.93499 | 17230 ft | 408 kts | 28° |
| 2026-05-05 15:08 | 36.18881 | 139.95640 | 17260 ft | 412 kts | 47° |
| 2026-05-05 15:08 | 36.20431 | 139.98603 | 17260 ft | 413 kts | 67° |
| 2026-05-05 15:08 | 36.21238 | 140.02007 | 17261 ft | 413 kts | 78° |
| 2026-05-05 15:08 | 36.21798 | 140.05507 | 17264 ft | 414 kts | 79° |
| 2026-05-05 15:09 | 36.22337 | 140.09010 | 17269 ft | 415 kts | 79° |
| 2026-05-05 15:09 | 36.22883 | 140.12519 | 17268 ft | 415 kts | 79° |
| 2026-05-05 15:09 | 36.23434 | 140.16024 | 17266 ft | 415 kts | 79° |
| 2026-05-05 15:09 | 36.23989 | 140.19528 | 17269 ft | 414 kts | 79° |
| 2026-05-05 15:10 | 36.24417 | 140.23056 | 17265 ft | 414 kts | 87° |
| 2026-05-05 15:10 | 36.24216 | 140.26594 | 17262 ft | 412 kts | 104° |
| 2026-05-05 15:10 | 36.23234 | 140.29910 | 17274 ft | 411 kts | 121° |
| 2026-05-05 15:10 | 36.21538 | 140.32740 | 17573 ft | 409 kts | 137° |
| 2026-05-05 15:11 | 36.19397 | 140.35044 | 17984 ft | 407 kts | 144° |
| 2026-05-05 15:11 | 36.17160 | 140.37202 | 18370 ft | 409 kts | 144° |
| 2026-05-05 15:11 | 36.14907 | 140.39358 | 18699 ft | 411 kts | 144° |
| 2026-05-05 15:11 | 36.12636 | 140.41538 | 19005 ft | 415 kts | 145° |
| 2026-05-05 15:12 | 36.10353 | 140.43733 | 19320 ft | 417 kts | 145° |
| 2026-05-05 15:12 | 36.08060 | 140.45944 | 19637 ft | 419 kts | 145° |
| 2026-05-05 15:12 | 36.05751 | 140.48168 | 19939 ft | 422 kts | 145° |
| 2026-05-05 15:12 | 36.03428 | 140.50405 | 20238 ft | 424 kts | 145° |
| 2026-05-05 15:13 | 36.01095 | 140.52654 | 20516 ft | 427 kts | 145° |
| 2026-05-05 15:13 | 35.98745 | 140.54916 | 20788 ft | 429 kts | 145° |
| 2026-05-05 15:13 | 35.96381 | 140.57190 | 21072 ft | 432 kts | 145° |
| 2026-05-05 15:13 | 35.94006 | 140.59474 | 21328 ft | 435 kts | 145° |
| 2026-05-05 15:14 | 35.91611 | 140.61775 | 21583 ft | 437 kts | 146° |
| 2026-05-05 15:14 | 35.89205 | 140.64086 | 21847 ft | 439 kts | 146° |
| 2026-05-05 15:14 | 35.86789 | 140.66406 | 22098 ft | 442 kts | 146° |
| 2026-05-05 15:14 | 35.84357 | 140.68738 | 22328 ft | 444 kts | 146° |
| 2026-05-05 15:15 | 35.81910 | 140.71080 | 22582 ft | 446 kts | 146° |
| 2026-05-05 15:15 | 35.79453 | 140.73430 | 22816 ft | 448 kts | 146° |
| 2026-05-05 15:15 | 35.76980 | 140.75795 | 23045 ft | 451 kts | 146° |
| 2026-05-05 15:15 | 35.74592 | 140.78328 | 23249 ft | 457 kts | 138° |
| 2026-05-05 15:16 | 35.72582 | 140.81399 | 23426 ft | 466 kts | 125° |
| 2026-05-05 15:16 | 35.71123 | 140.84929 | 23608 ft | 472 kts | 116° |
| 2026-05-05 15:16 | 35.69900 | 140.88691 | 23798 ft | 476 kts | 113° |
| 2026-05-05 15:16 | 35.68773 | 140.92527 | 24007 ft | 478 kts | 111° |
| 2026-05-05 15:17 | 35.67680 | 140.96406 | 24209 ft | 481 kts | 111° |
| 2026-05-05 15:17 | 35.66583 | 141.00307 | 24363 ft | 484 kts | 111° |
| 2026-05-05 15:17 | 35.65470 | 141.04221 | 24536 ft | 486 kts | 112° |
| 2026-05-05 15:17 | 35.64334 | 141.08152 | 24719 ft | 489 kts | 112° |
| 2026-05-05 15:18 | 35.63177 | 141.12092 | 24840 ft | 492 kts | 113° |
| 2026-05-05 15:18 | 35.62004 | 141.16055 | 25022 ft | 495 kts | 113° |
| 2026-05-05 15:18 | 35.60821 | 141.20036 | 25226 ft | 496 kts | 113° |
| 2026-05-05 15:18 | 35.59632 | 141.24028 | 25361 ft | 499 kts | 113° |
| 2026-05-05 15:19 | 35.58433 | 141.28047 | 25500 ft | 503 kts | 113° |
| 2026-05-05 15:19 | 35.57226 | 141.32091 | 25665 ft | 505 kts | 114° |
| 2026-05-05 15:19 | 35.56018 | 141.36139 | 25960 ft | 505 kts | 115° |
| 2026-05-05 15:19 | 35.54808 | 141.40189 | 26143 ft | 507 kts | 115° |
| 2026-05-05 15:20 | 35.53589 | 141.44257 | 26297 ft | 509 kts | 115° |
| 2026-05-05 15:20 | 35.52363 | 141.48337 | 26468 ft | 511 kts | 115° |
| 2026-05-05 15:20 | 35.51130 | 141.52441 | 26624 ft | 514 kts | 115° |
| 2026-05-05 15:20 | 35.49889 | 141.56559 | 26785 ft | 516 kts | 115° |
| 2026-05-05 15:21 | 35.48639 | 141.60702 | 26977 ft | 518 kts | 116° |
| 2026-05-05 15:21 | 35.47390 | 141.64849 | 27147 ft | 519 kts | 115° |
| 2026-05-05 15:21 | 35.46132 | 141.69023 | 27248 ft | 523 kts | 116° |
| 2026-05-05 15:21 | 35.45003 | 141.73277 | 27373 ft | 529 kts | 109° |
| 2026-05-05 15:22 | 35.44387 | 141.77759 | 27529 ft | 537 kts | 97° |
| 2026-05-05 15:22 | 35.44162 | 141.82345 | 27704 ft | 540 kts | 95° |
| 2026-05-05 15:22 | 35.44063 | 141.86961 | 27873 ft | 543 kts | 94° |
| 2026-05-05 15:22 | 35.44032 | 141.91602 | 27996 ft | 546 kts | 93° |
| 2026-05-05 15:23 | 35.44029 | 141.96274 | 28148 ft | 549 kts | 92° |
| 2026-05-05 15:23 | 35.44026 | 142.00970 | 28321 ft | 552 kts | 93° |
| 2026-05-05 15:23 | 35.44014 | 142.05685 | 28518 ft | 554 kts | 93° |
| 2026-05-05 15:23 | 35.43989 | 142.10420 | 28700 ft | 556 kts | 94° |
| 2026-05-05 15:24 | 35.43952 | 142.15173 | 28813 ft | 559 kts | 94° |
| 2026-05-05 15:24 | 35.43911 | 142.19948 | 28963 ft | 562 kts | 94° |
| 2026-05-05 15:24 | 35.43867 | 142.24743 | 29146 ft | 565 kts | 94° |
| 2026-05-05 15:24 | 35.43818 | 142.29565 | 29349 ft | 566 kts | 94° |
| 2026-05-05 15:25 | 35.43764 | 142.34397 | 29530 ft | 568 kts | 94° |
| 2026-05-05 15:25 | 35.43706 | 142.39252 | 29671 ft | 570 kts | 94° |
| 2026-05-05 15:25 | 35.43650 | 142.44118 | 29819 ft | 571 kts | 94° |
| 2026-05-05 15:26 | 35.43531 | 142.53916 | 30075 ft | 577 kts | 95° |
| 2026-05-05 15:26 | 35.43460 | 142.58833 | 30223 ft | 578 kts | 95° |
| 2026-05-05 15:26 | 35.43392 | 142.63777 | 30338 ft | 581 kts | 94° |
| 2026-05-05 15:26 | 35.43328 | 142.68733 | 30500 ft | 583 kts | 94° |
| 2026-05-05 15:27 | 35.43264 | 142.73635 | 30713 ft | 583 kts | 95° |
| 2026-05-05 15:27 | 35.43193 | 142.78606 | 30845 ft | 585 kts | 95° |
| 2026-05-05 15:27 | 35.43119 | 142.83675 | 31014 ft | 588 kts | 95° |
| 2026-05-05 15:27 | 35.43046 | 142.88620 | 31203 ft | 588 kts | 95° |
| 2026-05-05 15:28 | 35.42969 | 142.93646 | 31321 ft | 591 kts | 95° |
| 2026-05-05 15:28 | 35.42884 | 142.98689 | 31478 ft | 592 kts | 95° |
| 2026-05-05 15:28 | 35.42800 | 143.03738 | 31608 ft | 593 kts | 95° |
| 2026-05-05 15:29 | 35.42628 | 143.13895 | 31863 ft | 598 kts | 95° |
| 2026-05-05 15:29 | 35.42536 | 143.18994 | 32073 ft | 598 kts | 95° |
| 2026-05-05 15:29 | 35.42445 | 143.24095 | 32147 ft | 600 kts | 95° |
| 2026-05-05 15:29 | 35.42474 | 143.29228 | 32283 ft | 604 kts | 88° |
| 2026-05-05 15:30 | 35.43110 | 143.34324 | 32452 ft | 607 kts | 76° |
| 2026-05-05 15:30 | 35.44402 | 143.39244 | 32616 ft | 606 kts | 69° |
| 2026-05-05 15:30 | 35.45926 | 143.44067 | 32733 ft | 608 kts | 66° |
| 2026-05-05 15:30 | 35.47556 | 143.48857 | 32871 ft | 609 kts | 65° |
| 2026-05-05 15:31 | 35.49240 | 143.53624 | 33067 ft | 609 kts | 64° |
| 2026-05-05 15:31 | 35.50940 | 143.58387 | 33227 ft | 609 kts | 64° |
| 2026-05-05 15:31 | 35.52635 | 143.63157 | 33360 ft | 611 kts | 65° |
| 2026-05-05 15:31 | 35.54321 | 143.67949 | 33483 ft | 612 kts | 65° |
| 2026-05-05 15:32 | 35.55995 | 143.72758 | 33645 ft | 613 kts | 65° |
| 2026-05-05 15:32 | 35.57660 | 143.77580 | 33786 ft | 614 kts | 65° |
| 2026-05-05 15:32 | 35.59319 | 143.82408 | 33935 ft | 614 kts | 65° |
| 2026-05-05 15:32 | 35.60978 | 143.87253 | 34063 ft | 616 kts | 65° |
| 2026-05-05 15:33 | 35.62636 | 143.92104 | 34245 ft | 616 kts | 65° |
| 2026-05-05 15:33 | 35.64294 | 143.96955 | 34426 ft | 615 kts | 65° |
| 2026-05-05 15:33 | 35.65949 | 144.01804 | 34641 ft | 615 kts | 65° |
| 2026-05-05 15:33 | 35.67602 | 144.06651 | 34876 ft | 613 kts | 65° |
| 2026-05-05 15:34 | 35.69248 | 144.11482 | 35065 ft | 613 kts | 65° |
| 2026-05-05 15:34 | 35.70895 | 144.16323 | 35209 ft | 614 kts | 65° |
| 2026-05-05 15:34 | 35.72540 | 144.21166 | 35379 ft | 614 kts | 65° |
| 2026-05-05 15:34 | 35.74180 | 144.26006 | 35580 ft | 612 kts | 65° |
| 2026-05-05 15:35 | 35.75819 | 144.30846 | 35788 ft | 612 kts | 65° |
| 2026-05-05 15:35 | 35.77449 | 144.35668 | 35975 ft | 611 kts | 65° |
| 2026-05-05 15:35 | 35.79080 | 144.40503 | 36191 ft | 610 kts | 65° |
| 2026-05-05 15:35 | 35.80703 | 144.45321 | 36375 ft | 609 kts | 65° |
| 2026-05-05 15:36 | 35.82301 | 144.50079 | 36541 ft | 609 kts | 65° |
| 2026-05-05 15:36 | 35.83920 | 144.54899 | 36724 ft | 608 kts | 65° |
| 2026-05-05 15:36 | 35.85554 | 144.59771 | 36981 ft | 606 kts | 65° |
| 2026-05-05 15:36 | 35.87158 | 144.64561 | 37197 ft | 604 kts | 65° |
| 2026-05-05 15:37 | 35.88761 | 144.69358 | 37251 ft | 606 kts | 65° |
| 2026-05-05 15:37 | 35.91940 | 144.78892 | 37247 ft | 603 kts | 65° |
| 2026-05-05 15:38 | 35.95119 | 144.88447 | 37248 ft | 601 kts | 65° |
| 2026-05-05 15:38 | 35.98283 | 144.97996 | 37241 ft | 601 kts | 65° |
| 2026-05-05 15:39 | 36.01436 | 145.07551 | 37239 ft | 601 kts | 65° |
| 2026-05-05 15:39 | 36.04587 | 145.17132 | 37206 ft | 603 kts | 65° |
| 2026-05-05 15:40 | 36.07741 | 145.26744 | 37201 ft | 604 kts | 65° |
| 2026-05-05 15:40 | 36.10888 | 145.36367 | 37201 ft | 604 kts | 65° |
| 2026-05-05 15:41 | 36.13955 | 145.46041 | 37199 ft | 606 kts | 71° |
| 2026-05-05 15:41 | 36.16249 | 145.56070 | 37192 ft | 606 kts | 73° |
| 2026-05-05 15:42 | 36.18371 | 145.66166 | 37195 ft | 606 kts | 75° |
| 2026-05-05 15:42 | 36.20447 | 145.76280 | 37195 ft | 606 kts | 75° |
| 2026-05-05 15:43 | 36.22525 | 145.86399 | 37191 ft | 606 kts | 75° |
| 2026-05-05 15:43 | 36.24607 | 145.96518 | 37193 ft | 606 kts | 75° |
| 2026-05-05 15:44 | 36.26687 | 146.06641 | 37192 ft | 606 kts | 75° |
| 2026-05-05 15:44 | 36.28758 | 146.16769 | 37191 ft | 607 kts | 75° |
| 2026-05-05 15:45 | 36.30821 | 146.26913 | 37194 ft | 607 kts | 75° |
| 2026-05-05 15:45 | 36.32872 | 146.37055 | 37194 ft | 606 kts | 75° |
| 2026-05-05 15:46 | 36.34914 | 146.47194 | 37195 ft | 606 kts | 75° |
| 2026-05-05 15:46 | 36.36946 | 146.57337 | 37193 ft | 605 kts | 75° |
| 2026-05-05 15:47 | 36.38964 | 146.67477 | 37193 ft | 605 kts | 75° |
| 2026-05-05 15:47 | 36.40980 | 146.77630 | 37183 ft | 605 kts | 75° |
| 2026-05-05 15:48 | 36.42987 | 146.87774 | 37184 ft | 605 kts | 75° |
| 2026-05-05 15:48 | 36.44971 | 146.97855 | 37185 ft | 605 kts | 75° |
| 2026-05-05 15:49 | 36.46957 | 147.08005 | 37187 ft | 605 kts | 75° |
| 2026-05-05 15:49 | 36.48936 | 147.18171 | 37178 ft | 605 kts | 75° |
| 2026-05-05 15:50 | 36.50909 | 147.28340 | 37183 ft | 605 kts | 76° |
| 2026-05-05 15:50 | 36.52870 | 147.38509 | 37179 ft | 605 kts | 76° |
| 2026-05-05 15:51 | 36.54820 | 147.48675 | 37171 ft | 605 kts | 76° |
| 2026-05-05 15:51 | 36.56761 | 147.58851 | 37172 ft | 604 kts | 76° |
| 2026-05-05 15:52 | 36.58696 | 147.69031 | 37176 ft | 604 kts | 76° |
| 2026-05-05 15:52 | 36.60621 | 147.79214 | 37176 ft | 604 kts | 76° |
| 2026-05-05 15:53 | 36.62538 | 147.89400 | 37173 ft | 605 kts | 76° |
| 2026-05-05 15:53 | 36.64444 | 147.99591 | 37166 ft | 604 kts | 76° |
| 2026-05-05 15:54 | 36.66022 | 148.08065 | 37163 ft | 605 kts | 76° |
| 2026-05-05 15:54 | 36.67918 | 148.18275 | 37168 ft | 605 kts | 76° |
| 2026-05-05 15:55 | 36.69802 | 148.28483 | 37165 ft | 605 kts | 76° |
| 2026-05-05 15:55 | 36.71677 | 148.38705 | 37166 ft | 605 kts | 76° |
| 2026-05-05 15:56 | 36.73544 | 148.48928 | 37059 ft | 605 kts | 76° |
| 2026-05-05 15:56 | 36.75402 | 148.59152 | 37045 ft | 605 kts | 77° |
| 2026-05-05 15:57 | 36.77256 | 148.69405 | 37042 ft | 606 kts | 77° |
| 2026-05-05 15:57 | 36.79099 | 148.79656 | 37041 ft | 606 kts | 77° |
| 2026-05-05 15:58 | 36.80935 | 148.89923 | 37037 ft | 606 kts | 77° |
| 2026-05-05 15:58 | 36.82762 | 149.00198 | 37033 ft | 606 kts | 77° |
| 2026-05-05 15:59 | 36.84582 | 149.10487 | 37032 ft | 607 kts | 77° |
| 2026-05-05 15:59 | 36.86394 | 149.20784 | 37026 ft | 607 kts | 77° |
| 2026-05-05 16:00 | 36.88196 | 149.31084 | 37026 ft | 607 kts | 77° |
| 2026-05-05 16:00 | 36.89991 | 149.41398 | 37025 ft | 607 kts | 77° |
| 2026-05-05 16:01 | 36.91779 | 149.51712 | 37017 ft | 607 kts | 77° |
| 2026-05-05 16:01 | 36.93547 | 149.61974 | 37017 ft | 608 kts | 77° |
| 2026-05-05 16:02 | 36.95315 | 149.72303 | 37017 ft | 608 kts | 77° |
| 2026-05-05 16:02 | 36.97077 | 149.82652 | 37010 ft | 608 kts | 78° |
| 2026-05-05 16:03 | 36.98833 | 149.93011 | 37008 ft | 609 kts | 78° |
| 2026-05-05 16:03 | 37.01208 | 150.03147 | 37012 ft | 606 kts | 65° |
| 2026-05-05 16:04 | 37.04502 | 150.12857 | 37008 ft | 606 kts | 63° |
| 2026-05-05 16:04 | 37.07943 | 150.22488 | 36999 ft | 606 kts | 63° |
| 2026-05-05 16:05 | 37.11386 | 150.32124 | 36998 ft | 606 kts | 63° |
| 2026-05-05 16:05 | 37.14804 | 150.41792 | 36999 ft | 607 kts | 63° |
| 2026-05-05 16:06 | 37.18199 | 150.51472 | 36999 ft | 607 kts | 63° |
| 2026-05-05 16:06 | 37.21590 | 150.61176 | 36990 ft | 607 kts | 63° |
| 2026-05-05 16:07 | 37.24974 | 150.70889 | 36989 ft | 607 kts | 63° |
| 2026-05-05 16:07 | 37.28351 | 150.80610 | 36990 ft | 607 kts | 63° |
| 2026-05-05 16:08 | 37.31719 | 150.90342 | 36990 ft | 607 kts | 63° |
| 2026-05-05 16:08 | 37.35080 | 151.00077 | 36981 ft | 607 kts | 63° |
| 2026-05-05 16:09 | 37.38432 | 151.09818 | 36984 ft | 607 kts | 64° |
| 2026-05-05 16:09 | 37.41758 | 151.19511 | 36982 ft | 608 kts | 64° |
| 2026-05-05 16:10 | 37.45122 | 151.29354 | 36982 ft | 609 kts | 64° |
| 2026-05-05 16:10 | 37.48454 | 151.39141 | 36972 ft | 609 kts | 64° |
| 2026-05-05 16:11 | 37.51787 | 151.48958 | 36970 ft | 610 kts | 64° |
| 2026-05-05 16:12 | 37.58424 | 151.68592 | 36971 ft | 612 kts | 64° |
| 2026-05-05 16:13 | 37.66725 | 151.93345 | 36962 ft | 615 kts | 64° |
| 2026-05-05 16:13 | 37.70036 | 152.03286 | 36962 ft | 615 kts | 64° |
| 2026-05-05 16:14 | 37.76645 | 152.23223 | 36953 ft | 615 kts | 65° |
| 2026-05-05 16:15 | 37.83222 | 152.43194 | 36953 ft | 615 kts | 65° |
| 2026-05-05 16:16 | 37.89755 | 152.63175 | 36943 ft | 614 kts | 65° |
| 2026-05-05 16:17 | 37.94630 | 152.78172 | 36938 ft | 614 kts | 65° |
| 2026-05-05 16:18 | 37.99480 | 152.93168 | 36934 ft | 613 kts | 66° |
| 2026-05-05 16:19 | 38.04300 | 153.08150 | 36933 ft | 615 kts | 66° |
| 2026-05-05 16:19 | 38.09133 | 153.23259 | 36935 ft | 616 kts | 67° |
| 2026-05-05 16:20 | 38.15562 | 153.43472 | 36930 ft | 618 kts | 67° |
| 2026-05-05 16:22 | 38.23564 | 153.68852 | 36912 ft | 620 kts | 68° |
| 2026-05-05 16:23 | 38.29952 | 153.89266 | 36926 ft | 621 kts | 68° |
| 2026-05-05 16:23 | 38.34722 | 154.04612 | 36907 ft | 621 kts | 68° |
| 2026-05-05 16:24 | 38.37893 | 154.14855 | 36912 ft | 621 kts | 68° |
| 2026-05-05 16:25 | 38.42626 | 154.30225 | 36902 ft | 620 kts | 68° |
| 2026-05-05 16:25 | 38.47328 | 154.45573 | 36904 ft | 619 kts | 69° |
| 2026-05-05 16:26 | 38.53544 | 154.66009 | 36903 ft | 617 kts | 69° |
| 2026-05-05 16:27 | 38.56632 | 154.76220 | 36902 ft | 615 kts | 68° |
| 2026-05-05 16:27 | 38.59709 | 154.86417 | 36895 ft | 614 kts | 68° |
| 2026-05-05 16:28 | 38.62773 | 154.96607 | 36902 ft | 613 kts | 69° |
| 2026-05-05 16:28 | 38.65821 | 155.06795 | 36888 ft | 613 kts | 69° |
| 2026-05-05 16:29 | 38.68836 | 155.16911 | 36883 ft | 612 kts | 69° |
| 2026-05-05 16:29 | 38.71881 | 155.27169 | 36890 ft | 612 kts | 69° |
| 2026-05-05 16:30 | 38.74895 | 155.37356 | 36884 ft | 612 kts | 69° |
| 2026-05-05 16:30 | 38.77904 | 155.47558 | 36879 ft | 612 kts | 69° |
| 2026-05-05 16:31 | 38.80878 | 155.57688 | 36876 ft | 611 kts | 69° |
| 2026-05-05 16:31 | 38.83864 | 155.67894 | 36878 ft | 611 kts | 69° |
| 2026-05-05 16:32 | 38.86840 | 155.78107 | 36877 ft | 611 kts | 69° |
| 2026-05-05 16:32 | 38.89809 | 155.88329 | 36871 ft | 611 kts | 69° |
| 2026-05-05 16:33 | 38.92764 | 155.98549 | 36869 ft | 611 kts | 69° |
| 2026-05-05 16:33 | 38.95713 | 156.08785 | 36869 ft | 611 kts | 70° |
| 2026-05-05 16:34 | 38.98651 | 156.19030 | 36868 ft | 611 kts | 70° |
| 2026-05-05 16:34 | 39.01580 | 156.29275 | 36862 ft | 610 kts | 70° |
| 2026-05-05 16:35 | 39.04501 | 156.39533 | 36859 ft | 611 kts | 70° |
| 2026-05-05 16:35 | 39.07415 | 156.49804 | 36859 ft | 610 kts | 70° |
| 2026-05-05 16:36 | 39.10313 | 156.60061 | 36860 ft | 611 kts | 70° |
| 2026-05-05 16:36 | 39.13206 | 156.70351 | 36859 ft | 611 kts | 71° |
| 2026-05-05 16:37 | 39.16091 | 156.80645 | 36849 ft | 610 kts | 71° |
| 2026-05-05 16:37 | 39.18966 | 156.90936 | 36851 ft | 610 kts | 71° |
| 2026-05-05 16:38 | 39.21831 | 157.01234 | 36852 ft | 610 kts | 71° |
| 2026-05-05 16:38 | 39.24689 | 157.11553 | 36848 ft | 611 kts | 71° |
| 2026-05-05 16:39 | 39.27538 | 157.21877 | 36844 ft | 611 kts | 71° |
| 2026-05-05 16:39 | 39.30378 | 157.32214 | 36833 ft | 611 kts | 71° |
| 2026-05-05 16:40 | 39.33209 | 157.42559 | 36832 ft | 611 kts | 72° |
| 2026-05-05 16:40 | 39.35558 | 157.51177 | 36831 ft | 612 kts | 72° |
| 2026-05-05 16:41 | 39.38377 | 157.61551 | 36826 ft | 613 kts | 72° |
| 2026-05-05 16:41 | 39.41194 | 157.71959 | 36831 ft | 613 kts | 72° |
| 2026-05-05 16:42 | 39.44002 | 157.82391 | 36822 ft | 615 kts | 72° |
| 2026-05-05 16:42 | 39.46809 | 157.92854 | 36824 ft | 616 kts | 72° |
| 2026-05-05 16:43 | 39.49612 | 158.03342 | 36819 ft | 616 kts | 73° |
| 2026-05-05 16:43 | 39.52402 | 158.13827 | 36818 ft | 615 kts | 73° |
| 2026-05-05 16:44 | 39.55181 | 158.24313 | 36811 ft | 615 kts | 73° |
| 2026-05-05 16:44 | 39.57947 | 158.34795 | 36816 ft | 614 kts | 73° |
| 2026-05-05 16:45 | 39.60698 | 158.45263 | 36816 ft | 614 kts | 73° |
| 2026-05-05 16:45 | 39.63439 | 158.55742 | 36797 ft | 613 kts | 73° |
| 2026-05-05 16:46 | 39.66165 | 158.66201 | 36796 ft | 611 kts | 73° |
| 2026-05-05 16:46 | 39.68873 | 158.76640 | 36796 ft | 609 kts | 73° |
| 2026-05-05 16:47 | 39.71564 | 158.87061 | 36795 ft | 608 kts | 74° |
| 2026-05-05 16:47 | 39.74221 | 158.97392 | 36789 ft | 606 kts | 74° |
| 2026-05-05 16:48 | 39.76879 | 159.07767 | 36786 ft | 604 kts | 74° |
| 2026-05-05 16:48 | 39.79520 | 159.18128 | 36785 ft | 603 kts | 74° |
| 2026-05-05 16:49 | 39.82166 | 159.28542 | 36786 ft | 602 kts | 74° |
| 2026-05-05 16:49 | 39.84779 | 159.38867 | 36786 ft | 601 kts | 74° |
| 2026-05-05 16:50 | 39.87365 | 159.49133 | 36787 ft | 601 kts | 74° |
| 2026-05-05 16:50 | 39.89958 | 159.59473 | 36777 ft | 601 kts | 75° |
| 2026-05-05 16:51 | 39.92538 | 159.69817 | 36777 ft | 600 kts | 75° |
| 2026-05-05 16:51 | 39.95103 | 159.80154 | 36776 ft | 599 kts | 75° |
| 2026-05-05 16:52 | 39.97665 | 159.90484 | 36777 ft | 599 kts | 75° |
| 2026-05-05 16:52 | 40.00220 | 160.00826 | 36777 ft | 599 kts | 75° |
| 2026-05-05 16:53 | 40.02783 | 160.11156 | 36776 ft | 599 kts | 75° |
| 2026-05-05 16:53 | 40.05363 | 160.21496 | 36766 ft | 599 kts | 75° |
| 2026-05-05 16:54 | 40.07932 | 160.31850 | 36767 ft | 599 kts | 75° |
| 2026-05-05 16:54 | 40.10486 | 160.42220 | 36771 ft | 600 kts | 75° |
| 2026-05-05 16:55 | 40.13036 | 160.52603 | 36767 ft | 600 kts | 75° |
| 2026-05-05 16:55 | 40.15571 | 160.62993 | 36766 ft | 600 kts | 75° |
| 2026-05-05 16:56 | 40.18098 | 160.73397 | 36767 ft | 600 kts | 76° |
| 2026-05-05 16:56 | 40.20618 | 160.83799 | 36767 ft | 600 kts | 76° |
| 2026-05-05 16:57 | 40.23127 | 160.94206 | 36769 ft | 600 kts | 76° |
| 2026-05-05 16:57 | 40.25625 | 161.04612 | 36758 ft | 600 kts | 76° |
| 2026-05-05 16:58 | 40.28112 | 161.15022 | 36759 ft | 598 kts | 76° |
| 2026-05-05 16:58 | 40.30586 | 161.25428 | 36757 ft | 598 kts | 76° |
| 2026-05-05 16:59 | 40.33049 | 161.35834 | 36757 ft | 597 kts | 77° |
| 2026-05-05 16:59 | 40.35498 | 161.46229 | 36757 ft | 596 kts | 77° |
| 2026-05-05 17:00 | 40.37921 | 161.56551 | 36757 ft | 596 kts | 77° |
| 2026-05-05 17:00 | 40.40346 | 161.66934 | 36757 ft | 595 kts | 77° |
| 2026-05-05 17:01 | 40.42757 | 161.77308 | 36757 ft | 595 kts | 77° |
| 2026-05-05 17:01 | 40.45161 | 161.87701 | 36756 ft | 595 kts | 77° |
| 2026-05-05 17:02 | 40.47556 | 161.98100 | 36749 ft | 595 kts | 77° |
| 2026-05-05 17:02 | 40.49940 | 162.08501 | 36748 ft | 594 kts | 77° |
| 2026-05-05 17:03 | 40.52310 | 162.18880 | 36748 ft | 592 kts | 77° |
| 2026-05-05 17:03 | 40.54666 | 162.29253 | 36748 ft | 592 kts | 77° |
| 2026-05-05 17:04 | 40.57015 | 162.39641 | 36748 ft | 593 kts | 78° |
| 2026-05-05 17:04 | 40.59357 | 162.50040 | 36748 ft | 593 kts | 78° |
| 2026-05-05 17:05 | 40.61687 | 162.60441 | 36748 ft | 592 kts | 78° |
| 2026-05-05 17:05 | 40.64004 | 162.70828 | 36748 ft | 592 kts | 78° |
| 2026-05-05 17:06 | 40.66312 | 162.81232 | 36749 ft | 592 kts | 78° |
| 2026-05-05 17:06 | 40.68595 | 162.91563 | 36748 ft | 591 kts | 78° |
| 2026-05-05 17:07 | 40.70882 | 163.01965 | 36748 ft | 591 kts | 78° |
| 2026-05-05 17:07 | 40.73158 | 163.12375 | 36748 ft | 591 kts | 78° |
| 2026-05-05 17:08 | 40.75422 | 163.22777 | 36748 ft | 590 kts | 78° |
| 2026-05-05 17:08 | 40.77675 | 163.33166 | 36748 ft | 589 kts | 78° |
| 2026-05-05 17:09 | 40.79913 | 163.43544 | 36748 ft | 588 kts | 78° |
| 2026-05-05 17:09 | 40.82138 | 163.53928 | 36748 ft | 588 kts | 78° |
| 2026-05-05 17:10 | 40.84357 | 163.64314 | 36748 ft | 588 kts | 78° |
| 2026-05-05 17:10 | 40.86568 | 163.74703 | 36748 ft | 587 kts | 78° |
| 2026-05-05 17:11 | 40.88764 | 163.85088 | 36739 ft | 586 kts | 78° |
| 2026-05-05 17:11 | 40.90948 | 163.95475 | 36739 ft | 586 kts | 79° |
| 2026-05-05 17:12 | 40.93123 | 164.05866 | 36741 ft | 586 kts | 78° |
| 2026-05-05 17:12 | 40.95281 | 164.16233 | 36738 ft | 584 kts | 78° |
| 2026-05-05 17:13 | 40.97432 | 164.26595 | 36739 ft | 584 kts | 78° |
| 2026-05-05 17:13 | 40.99571 | 164.36955 | 36738 ft | 584 kts | 79° |
| 2026-05-05 17:14 | 41.01700 | 164.47331 | 36739 ft | 584 kts | 79° |
| 2026-05-05 17:14 | 41.03821 | 164.57716 | 36739 ft | 584 kts | 79° |
| 2026-05-05 17:15 | 41.05931 | 164.68095 | 36739 ft | 583 kts | 79° |
| 2026-05-05 17:15 | 41.08031 | 164.78475 | 36739 ft | 583 kts | 79° |
| 2026-05-05 17:16 | 41.10119 | 164.88853 | 36739 ft | 582 kts | 79° |
| 2026-05-05 17:16 | 41.12195 | 164.99229 | 36739 ft | 582 kts | 79° |
| 2026-05-05 17:17 | 41.14260 | 165.09596 | 36738 ft | 581 kts | 79° |
| 2026-05-05 17:17 | 41.16311 | 165.19953 | 36739 ft | 580 kts | 79° |
| 2026-05-05 17:18 | 41.18341 | 165.30246 | 36739 ft | 580 kts | 79° |
| 2026-05-05 17:18 | 41.20371 | 165.40603 | 36739 ft | 579 kts | 79° |
| 2026-05-05 17:19 | 41.22390 | 165.50959 | 36739 ft | 579 kts | 79° |
| 2026-05-05 17:19 | 41.24399 | 165.61313 | 36739 ft | 579 kts | 79° |
| 2026-05-05 17:20 | 41.26400 | 165.71678 | 36739 ft | 579 kts | 79° |
| 2026-05-05 17:20 | 41.28395 | 165.82053 | 36748 ft | 579 kts | 79° |
| 2026-05-05 17:21 | 41.30377 | 165.92431 | 36748 ft | 579 kts | 80° |
| 2026-05-05 17:22 | 41.33329 | 166.08007 | 36748 ft | 579 kts | 79° |
| 2026-05-05 17:22 | 41.35285 | 166.18375 | 36748 ft | 577 kts | 79° |
| 2026-05-05 17:23 | 41.37228 | 166.28735 | 36748 ft | 577 kts | 79° |
| 2026-05-05 17:23 | 41.39160 | 166.39106 | 36749 ft | 577 kts | 79° |
| 2026-05-05 17:24 | 41.41081 | 166.49468 | 36748 ft | 576 kts | 79° |
| 2026-05-05 17:24 | 41.42993 | 166.59833 | 36748 ft | 576 kts | 79° |
| 2026-05-05 17:25 | 41.44895 | 166.70191 | 36741 ft | 575 kts | 79° |
| 2026-05-05 17:25 | 41.46780 | 166.80531 | 36679 ft | 575 kts | 79° |
| 2026-05-05 17:26 | 41.48657 | 166.90884 | 36689 ft | 574 kts | 79° |
| 2026-05-05 17:26 | 41.50524 | 167.01229 | 36682 ft | 573 kts | 79° |
| 2026-05-05 17:27 | 41.52380 | 167.11573 | 36691 ft | 573 kts | 79° |
| 2026-05-05 17:27 | 41.53912 | 167.20154 | 36694 ft | 572 kts | 79° |
| 2026-05-05 17:28 | 41.55746 | 167.30480 | 36691 ft | 571 kts | 79° |
| 2026-05-05 17:28 | 41.57570 | 167.40805 | 36688 ft | 571 kts | 79° |
| 2026-05-05 17:29 | 41.59383 | 167.51130 | 36689 ft | 570 kts | 79° |
| 2026-05-05 17:29 | 41.61184 | 167.61448 | 36692 ft | 570 kts | 79° |
| 2026-05-05 17:30 | 41.62975 | 167.71768 | 36690 ft | 570 kts | 80° |
| 2026-05-05 17:30 | 41.64756 | 167.82082 | 36697 ft | 570 kts | 80° |
| 2026-05-05 17:31 | 41.66532 | 167.92425 | 36695 ft | 570 kts | 80° |
| 2026-05-05 17:31 | 41.68294 | 168.02745 | 36688 ft | 570 kts | 80° |
| 2026-05-05 17:32 | 41.70034 | 168.13013 | 36699 ft | 569 kts | 80° |
| 2026-05-05 17:32 | 41.71779 | 168.23351 | 36700 ft | 569 kts | 80° |
| 2026-05-05 17:33 | 41.73513 | 168.33689 | 36705 ft | 569 kts | 80° |
| 2026-05-05 17:33 | 41.75235 | 168.44024 | 36704 ft | 568 kts | 80° |
| 2026-05-05 17:34 | 41.76948 | 168.54359 | 36704 ft | 568 kts | 80° |
| 2026-05-05 17:34 | 41.78653 | 168.64676 | 36700 ft | 568 kts | 80° |
| 2026-05-05 17:35 | 41.80343 | 168.75005 | 36703 ft | 567 kts | 80° |
| 2026-05-05 17:35 | 41.82022 | 168.85332 | 36705 ft | 567 kts | 80° |
| 2026-05-05 17:36 | 41.83692 | 168.95657 | 36710 ft | 567 kts | 79° |
| 2026-05-05 17:36 | 41.85353 | 169.05984 | 36710 ft | 566 kts | 79° |
| 2026-05-05 17:37 | 41.87004 | 169.16309 | 36712 ft | 566 kts | 79° |
| 2026-05-05 17:37 | 41.88644 | 169.26629 | 36711 ft | 565 kts | 79° |
| 2026-05-05 17:38 | 41.90273 | 169.36949 | 36711 ft | 565 kts | 79° |
| 2026-05-05 17:38 | 41.91890 | 169.47256 | 36711 ft | 565 kts | 79° |
| 2026-05-05 17:39 | 41.93501 | 169.57569 | 36712 ft | 564 kts | 79° |
| 2026-05-05 17:39 | 41.95099 | 169.67888 | 36718 ft | 564 kts | 79° |
| 2026-05-05 17:40 | 41.96687 | 169.78207 | 36721 ft | 564 kts | 79° |
| 2026-05-05 17:40 | 41.98266 | 169.88530 | 36721 ft | 564 kts | 79° |
| 2026-05-05 17:41 | 41.99780 | 169.98871 | 36716 ft | 563 kts | 84° |
| 2026-05-05 17:41 | 42.00438 | 170.09336 | 36721 ft | 562 kts | 89° |
| 2026-05-05 17:42 | 42.00890 | 170.19814 | 36720 ft | 561 kts | 90° |
| 2026-05-05 17:42 | 42.01299 | 170.30291 | 36721 ft | 561 kts | 90° |
| 2026-05-05 17:43 | 42.01709 | 170.40758 | 36725 ft | 561 kts | 89° |
| 2026-05-05 17:43 | 42.02121 | 170.51247 | 36730 ft | 562 kts | 89° |
| 2026-05-05 17:44 | 42.02527 | 170.61741 | 36729 ft | 561 kts | 89° |
| 2026-05-05 17:44 | 42.02924 | 170.72229 | 36729 ft | 561 kts | 89° |
| 2026-05-05 17:45 | 42.03306 | 170.82653 | 36730 ft | 561 kts | 89° |
| 2026-05-05 17:45 | 42.03681 | 170.93131 | 36729 ft | 561 kts | 89° |
| 2026-05-05 17:46 | 42.04047 | 171.03608 | 36730 ft | 561 kts | 89° |
| 2026-05-05 17:46 | 42.04404 | 171.14071 | 36731 ft | 560 kts | 89° |
| 2026-05-05 17:47 | 42.04751 | 171.24537 | 36736 ft | 560 kts | 89° |
| 2026-05-05 17:47 | 42.05085 | 171.34993 | 36730 ft | 559 kts | 89° |
| 2026-05-05 17:48 | 42.05414 | 171.45434 | 36729 ft | 558 kts | 89° |
| 2026-05-05 17:48 | 42.05730 | 171.55864 | 36738 ft | 558 kts | 88° |
| 2026-05-05 17:49 | 42.06037 | 171.66294 | 36739 ft | 558 kts | 88° |
| 2026-05-05 17:49 | 42.06334 | 171.76719 | 36740 ft | 558 kts | 88° |
| 2026-05-05 17:50 | 42.06622 | 171.87144 | 36739 ft | 557 kts | 88° |
| 2026-05-05 17:50 | 42.06898 | 171.97491 | 36739 ft | 557 kts | 88° |
| 2026-05-05 17:51 | 42.07168 | 172.07905 | 36739 ft | 557 kts | 89° |
| 2026-05-05 17:51 | 42.07430 | 172.18319 | 36739 ft | 557 kts | 89° |
| 2026-05-05 17:52 | 42.07679 | 172.28733 | 36744 ft | 557 kts | 89° |
| 2026-05-05 17:52 | 42.07918 | 172.39137 | 36748 ft | 557 kts | 89° |
| 2026-05-05 17:53 | 42.08148 | 172.49554 | 36748 ft | 557 kts | 89° |
| 2026-05-05 17:53 | 42.08370 | 172.59984 | 36748 ft | 557 kts | 89° |
| 2026-05-05 17:54 | 42.08582 | 172.70417 | 36748 ft | 557 kts | 89° |
| 2026-05-05 17:54 | 42.08786 | 172.80850 | 36748 ft | 557 kts | 89° |
| 2026-05-05 17:55 | 42.08980 | 172.91282 | 36748 ft | 557 kts | 89° |
| 2026-05-05 17:55 | 42.09164 | 173.01716 | 36748 ft | 557 kts | 89° |
| 2026-05-05 17:56 | 42.09338 | 173.12148 | 36748 ft | 557 kts | 88° |
| 2026-05-05 17:56 | 42.09504 | 173.22568 | 36748 ft | 557 kts | 88° |
| 2026-05-05 17:57 | 42.09660 | 173.32993 | 36748 ft | 556 kts | 88° |
| 2026-05-05 17:57 | 42.09806 | 173.43400 | 36751 ft | 556 kts | 88° |
| 2026-05-05 17:58 | 42.09944 | 173.53801 | 36758 ft | 555 kts | 88° |
| 2026-05-05 17:58 | 42.10072 | 173.64200 | 36757 ft | 555 kts | 88° |
| 2026-05-05 17:59 | 42.10189 | 173.74593 | 36757 ft | 555 kts | 88° |
| 2026-05-05 17:59 | 42.10296 | 173.84974 | 36758 ft | 554 kts | 88° |
| 2026-05-05 18:00 | 42.10399 | 173.95351 | 36757 ft | 554 kts | 88° |
| 2026-05-05 18:00 | 42.10487 | 174.05729 | 36757 ft | 554 kts | 88° |
| 2026-05-05 18:01 | 42.10564 | 174.16100 | 36763 ft | 554 kts | 88° |
| 2026-05-05 18:01 | 42.10637 | 174.26482 | 36871 ft | 554 kts | 88° |
| 2026-05-05 18:02 | 42.10699 | 174.36865 | 36978 ft | 554 kts | 89° |
| 2026-05-05 18:02 | 42.10750 | 174.47179 | 36980 ft | 555 kts | 88° |
| 2026-05-05 18:03 | 42.10794 | 174.57566 | 36985 ft | 555 kts | 89° |
| 2026-05-05 18:03 | 42.10826 | 174.67957 | 36978 ft | 555 kts | 89° |
| 2026-05-05 18:04 | 42.10850 | 174.78349 | 36981 ft | 555 kts | 88° |
| 2026-05-05 18:04 | 42.10865 | 174.88740 | 36979 ft | 556 kts | 88° |
| 2026-05-05 18:05 | 42.10872 | 174.99150 | 36980 ft | 556 kts | 88° |
| 2026-05-05 18:05 | 42.10867 | 175.09554 | 36978 ft | 555 kts | 88° |
| 2026-05-05 18:06 | 42.10853 | 175.19944 | 36978 ft | 555 kts | 88° |
| 2026-05-05 18:06 | 42.10830 | 175.30331 | 36980 ft | 554 kts | 88° |
| 2026-05-05 18:07 | 42.10797 | 175.40712 | 36978 ft | 554 kts | 88° |
| 2026-05-05 18:07 | 42.10754 | 175.51082 | 36978 ft | 553 kts | 88° |
| 2026-05-05 18:08 | 42.10707 | 175.61434 | 36979 ft | 552 kts | 88° |
| 2026-05-05 18:08 | 42.10646 | 175.71776 | 36978 ft | 552 kts | 88° |
| 2026-05-05 18:09 | 42.10577 | 175.82091 | 36978 ft | 551 kts | 88° |
| 2026-05-05 18:09 | 42.10500 | 175.92414 | 36979 ft | 551 kts | 88° |
| 2026-05-05 18:10 | 42.10412 | 176.02735 | 36979 ft | 551 kts | 88° |
| 2026-05-05 18:10 | 42.10315 | 176.13054 | 36982 ft | 551 kts | 88° |
| 2026-05-05 18:11 | 42.10211 | 176.23370 | 36982 ft | 551 kts | 88° |
| 2026-05-05 18:11 | 42.10100 | 176.33693 | 36979 ft | 552 kts | 88° |
| 2026-05-05 18:12 | 42.09974 | 176.43952 | 36979 ft | 551 kts | 88° |
| 2026-05-05 18:12 | 42.09836 | 176.54270 | 36979 ft | 552 kts | 88° |
| 2026-05-05 18:13 | 42.09689 | 176.64614 | 36979 ft | 553 kts | 88° |
| 2026-05-05 18:13 | 42.09541 | 176.74974 | 36980 ft | 554 kts | 88° |
| 2026-05-05 18:14 | 42.09381 | 176.85347 | 36979 ft | 554 kts | 88° |
| 2026-05-05 18:14 | 42.09207 | 176.95718 | 36980 ft | 554 kts | 88° |
| 2026-05-05 18:15 | 42.09025 | 177.06092 | 36980 ft | 554 kts | 88° |
| 2026-05-05 18:15 | 42.08865 | 177.14706 | 36985 ft | 554 kts | 88° |
| 2026-05-05 18:16 | 42.08667 | 177.25077 | 36979 ft | 554 kts | 88° |
| 2026-05-05 18:16 | 42.08463 | 177.35440 | 36982 ft | 554 kts | 88° |
| 2026-05-05 18:17 | 42.08247 | 177.45795 | 36981 ft | 553 kts | 88° |
| 2026-05-05 18:17 | 42.08020 | 177.56145 | 36978 ft | 553 kts | 87° |
| 2026-05-05 18:18 | 42.07786 | 177.66492 | 36969 ft | 553 kts | 87° |
| 2026-05-05 18:18 | 42.07542 | 177.76831 | 36970 ft | 552 kts | 87° |
| 2026-05-05 18:19 | 42.07289 | 177.87163 | 36968 ft | 552 kts | 87° |
| 2026-05-05 18:19 | 42.07029 | 177.97477 | 36938 ft | 553 kts | 89° |
| 2026-05-05 18:20 | 42.06759 | 178.07832 | 36932 ft | 554 kts | 89° |
| 2026-05-05 18:20 | 42.06476 | 178.18211 | 36935 ft | 555 kts | 89° |
| 2026-05-05 18:21 | 42.06184 | 178.28586 | 36934 ft | 555 kts | 89° |
| 2026-05-05 18:21 | 42.05884 | 178.38963 | 36933 ft | 555 kts | 89° |
| 2026-05-05 18:22 | 42.05572 | 178.49345 | 36934 ft | 555 kts | 89° |
| 2026-05-05 18:22 | 42.05249 | 178.59728 | 36935 ft | 556 kts | 89° |
| 2026-05-05 18:23 | 42.04922 | 178.70050 | 36935 ft | 556 kts | 89° |
| 2026-05-05 18:23 | 42.04581 | 178.80433 | 36935 ft | 556 kts | 89° |
| 2026-05-05 18:24 | 42.04234 | 178.90841 | 36935 ft | 557 kts | 89° |
| 2026-05-05 18:24 | 42.03877 | 179.01258 | 36935 ft | 558 kts | 89° |
| 2026-05-05 18:25 | 42.03507 | 179.11684 | 36935 ft | 558 kts | 89° |
| 2026-05-05 18:25 | 42.03129 | 179.22114 | 36935 ft | 559 kts | 89° |
| 2026-05-05 18:26 | 42.02740 | 179.32555 | 36934 ft | 559 kts | 88° |
| 2026-05-05 18:26 | 42.02344 | 179.42991 | 36934 ft | 559 kts | 88° |
| 2026-05-05 18:27 | 42.01938 | 179.53431 | 36935 ft | 559 kts | 88° |
| 2026-05-05 18:27 | 42.01522 | 179.63847 | 36933 ft | 558 kts | 88° |
| 2026-05-05 18:28 | 42.00882 | 179.79485 | 36934 ft | 558 kts | 88° |
| 2026-05-05 18:28 | 42.00441 | 179.89901 | 36934 ft | 558 kts | 88° |
| 2026-05-05 18:29 | 41.99848 | -179.99688 | 37140 ft | 562 kts | 96° |
| 2026-05-05 18:29 | 41.99176 | -179.94505 | 37316 ft | 563 kts | 97° |
| 2026-05-05 18:29 | 41.98432 | -179.89335 | 37487 ft | 564 kts | 97° |
| 2026-05-05 18:30 | 41.97647 | -179.84170 | 37635 ft | 564 kts | 98° |
| 2026-05-05 18:30 | 41.96842 | -179.79002 | 37767 ft | 565 kts | 98° |
| 2026-05-05 18:30 | 41.96033 | -179.73831 | 37909 ft | 566 kts | 98° |
| 2026-05-05 18:30 | 41.95232 | -179.68722 | 38033 ft | 567 kts | 98° |
| 2026-05-05 18:31 | 41.94424 | -179.63555 | 38199 ft | 566 kts | 98° |
| 2026-05-05 18:31 | 41.93616 | -179.58379 | 38340 ft | 566 kts | 98° |
| 2026-05-05 18:31 | 41.92809 | -179.53199 | 38453 ft | 567 kts | 98° |
| 2026-05-05 18:31 | 41.91999 | -179.48011 | 38563 ft | 568 kts | 98° |
| 2026-05-05 18:32 | 41.91186 | -179.42817 | 38681 ft | 569 kts | 98° |
| 2026-05-05 18:32 | 41.90371 | -179.37619 | 38789 ft | 569 kts | 98° |
| 2026-05-05 18:32 | 41.89553 | -179.32419 | 38894 ft | 569 kts | 98° |
| 2026-05-05 18:32 | 41.88731 | -179.27219 | 39006 ft | 570 kts | 98° |
| 2026-05-05 18:33 | 41.87078 | -179.16804 | 39213 ft | 571 kts | 98° |
| 2026-05-05 18:33 | 41.85409 | -179.06364 | 39246 ft | 572 kts | 98° |
| 2026-05-05 18:34 | 41.83729 | -178.95932 | 39248 ft | 572 kts | 98° |
| 2026-05-05 18:34 | 41.82043 | -178.85500 | 39247 ft | 572 kts | 97° |
| 2026-05-05 18:35 | 41.80343 | -178.75067 | 39249 ft | 573 kts | 97° |
| 2026-05-05 18:35 | 41.78639 | -178.64633 | 39248 ft | 573 kts | 97° |
| 2026-05-05 18:36 | 41.76919 | -178.54189 | 39248 ft | 574 kts | 97° |
| 2026-05-05 18:36 | 41.75184 | -178.43740 | 39248 ft | 575 kts | 97° |
| 2026-05-05 18:37 | 41.73440 | -178.33283 | 39248 ft | 576 kts | 97° |
| 2026-05-05 18:37 | 41.71684 | -178.22829 | 39248 ft | 576 kts | 97° |
| 2026-05-05 18:38 | 41.69923 | -178.12376 | 39248 ft | 576 kts | 97° |
| 2026-05-05 18:38 | 41.68149 | -178.01926 | 39248 ft | 576 kts | 97° |
| 2026-05-05 18:39 | 41.66376 | -177.91547 | 39248 ft | 577 kts | 97° |
| 2026-05-05 18:39 | 41.64577 | -177.81088 | 39246 ft | 577 kts | 97° |
| 2026-05-05 18:40 | 41.62770 | -177.70649 | 39247 ft | 576 kts | 97° |
| 2026-05-05 18:40 | 41.60962 | -177.60221 | 39247 ft | 576 kts | 97° |
| 2026-05-05 18:41 | 41.59142 | -177.49808 | 39248 ft | 576 kts | 97° |
| 2026-05-05 18:41 | 41.57314 | -177.39393 | 39248 ft | 576 kts | 97° |
| 2026-05-05 18:42 | 41.55476 | -177.28986 | 39239 ft | 576 kts | 97° |
| 2026-05-05 18:42 | 41.53624 | -177.18574 | 39239 ft | 576 kts | 97° |
| 2026-05-05 18:43 | 41.51765 | -177.08187 | 39239 ft | 575 kts | 97° |
| 2026-05-05 18:43 | 41.49899 | -176.97800 | 39239 ft | 575 kts | 97° |
| 2026-05-05 18:44 | 41.48027 | -176.87415 | 39238 ft | 576 kts | 96° |
| 2026-05-05 18:44 | 41.46138 | -176.77034 | 39239 ft | 576 kts | 96° |
| 2026-05-05 18:45 | 41.44239 | -176.66661 | 39239 ft | 576 kts | 96° |
| 2026-05-05 18:45 | 41.42335 | -176.56310 | 39245 ft | 576 kts | 96° |
| 2026-05-05 18:46 | 41.40421 | -176.45959 | 39248 ft | 575 kts | 96° |
| 2026-05-05 18:46 | 41.38499 | -176.35609 | 39248 ft | 576 kts | 96° |
| 2026-05-05 18:47 | 41.36568 | -176.25257 | 39248 ft | 576 kts | 96° |
| 2026-05-05 18:47 | 41.34626 | -176.14914 | 39248 ft | 576 kts | 96° |
| 2026-05-05 18:48 | 41.32674 | -176.04579 | 39248 ft | 576 kts | 96° |
| 2026-05-05 18:48 | 41.30725 | -175.94315 | 39249 ft | 576 kts | 96° |
| 2026-05-05 18:49 | 41.28755 | -175.84008 | 39247 ft | 575 kts | 96° |
| 2026-05-05 18:49 | 41.26785 | -175.73722 | 39248 ft | 575 kts | 96° |
| 2026-05-05 18:50 | 41.24802 | -175.63433 | 39248 ft | 575 kts | 96° |
| 2026-05-05 18:50 | 41.22810 | -175.53159 | 39247 ft | 574 kts | 96° |
| 2026-05-05 18:51 | 41.20811 | -175.42905 | 39248 ft | 573 kts | 96° |
| 2026-05-05 18:51 | 41.18805 | -175.32659 | 39247 ft | 573 kts | 96° |
| 2026-05-05 18:52 | 41.16789 | -175.22432 | 39245 ft | 573 kts | 96° |
| 2026-05-05 18:52 | 41.14770 | -175.12220 | 39248 ft | 572 kts | 96° |
| 2026-05-05 18:53 | 41.12739 | -175.02008 | 39248 ft | 572 kts | 96° |
| 2026-05-05 18:53 | 41.10704 | -174.91837 | 39248 ft | 570 kts | 96° |
| 2026-05-05 18:54 | 41.08662 | -174.81671 | 39247 ft | 571 kts | 96° |
| 2026-05-05 18:54 | 41.06613 | -174.71511 | 39247 ft | 570 kts | 95° |
| 2026-05-05 18:55 | 41.04556 | -174.61369 | 39247 ft | 570 kts | 95° |
| 2026-05-05 18:55 | 41.02486 | -174.51237 | 39248 ft | 569 kts | 95° |
| 2026-05-05 18:56 | 41.00415 | -174.41125 | 39248 ft | 569 kts | 95° |
| 2026-05-05 18:56 | 40.98337 | -174.31018 | 39248 ft | 569 kts | 95° |
| 2026-05-05 18:57 | 40.96246 | -174.20910 | 39246 ft | 569 kts | 95° |
| 2026-05-05 18:57 | 40.94149 | -174.10833 | 39229 ft | 568 kts | 95° |
| 2026-05-05 18:58 | 40.92044 | -174.00754 | 39229 ft | 569 kts | 95° |
| 2026-05-05 18:58 | 40.89929 | -173.90683 | 39229 ft | 567 kts | 95° |
| 2026-05-05 18:59 | 40.87815 | -173.80666 | 39237 ft | 565 kts | 95° |
| 2026-05-05 18:59 | 40.85698 | -173.70672 | 39238 ft | 564 kts | 95° |
| 2026-05-05 19:00 | 40.83578 | -173.60716 | 39239 ft | 563 kts | 95° |
| 2026-05-05 19:00 | 40.81453 | -173.50772 | 39237 ft | 562 kts | 95° |
| 2026-05-05 19:01 | 40.79332 | -173.40902 | 39239 ft | 563 kts | 95° |
| 2026-05-05 19:01 | 40.77188 | -173.30972 | 39239 ft | 562 kts | 95° |
| 2026-05-05 19:02 | 40.75039 | -173.21064 | 39237 ft | 561 kts | 95° |
| 2026-05-05 19:02 | 40.72885 | -173.11180 | 39239 ft | 560 kts | 95° |
| 2026-05-05 19:03 | 40.70728 | -173.01320 | 39239 ft | 559 kts | 95° |
| 2026-05-05 19:03 | 40.68567 | -172.91500 | 39239 ft | 558 kts | 95° |
| 2026-05-05 19:04 | 40.66765 | -172.83340 | 39239 ft | 558 kts | 95° |
| 2026-05-05 19:04 | 40.64595 | -172.73548 | 39247 ft | 557 kts | 95° |
| 2026-05-05 19:05 | 40.62421 | -172.63774 | 39248 ft | 555 kts | 95° |
| 2026-05-05 19:05 | 40.60241 | -172.54033 | 39247 ft | 554 kts | 95° |
| 2026-05-05 19:06 | 40.58058 | -172.44322 | 39247 ft | 553 kts | 95° |
| 2026-05-05 19:06 | 40.55871 | -172.34626 | 39248 ft | 553 kts | 95° |
| 2026-05-05 19:07 | 40.53677 | -172.24941 | 39247 ft | 552 kts | 95° |
| 2026-05-05 19:07 | 40.51479 | -172.15267 | 39248 ft | 553 kts | 95° |
| 2026-05-05 19:08 | 40.49266 | -172.05588 | 39247 ft | 553 kts | 95° |
| 2026-05-05 19:08 | 40.47046 | -171.95908 | 39249 ft | 554 kts | 95° |
| 2026-05-05 19:09 | 40.44817 | -171.86253 | 39246 ft | 551 kts | 96° |
| 2026-05-05 19:09 | 40.42586 | -171.76625 | 39247 ft | 551 kts | 96° |
| 2026-05-05 19:10 | 40.40351 | -171.67009 | 39248 ft | 551 kts | 96° |
| 2026-05-05 19:10 | 40.38107 | -171.57398 | 39248 ft | 551 kts | 96° |
| 2026-05-05 19:11 | 40.35853 | -171.47779 | 39247 ft | 552 kts | 96° |
| 2026-05-05 19:11 | 40.33589 | -171.38158 | 39248 ft | 552 kts | 96° |
| 2026-05-05 19:12 | 40.31319 | -171.28549 | 39246 ft | 551 kts | 96° |
| 2026-05-05 19:12 | 40.29046 | -171.18964 | 39247 ft | 552 kts | 97° |
| 2026-05-05 19:13 | 40.26758 | -171.09375 | 39248 ft | 551 kts | 97° |
| 2026-05-05 19:13 | 40.24460 | -170.99798 | 39238 ft | 551 kts | 97° |
| 2026-05-05 19:14 | 40.22158 | -170.90242 | 39238 ft | 550 kts | 97° |
| 2026-05-05 19:14 | 40.19854 | -170.80681 | 39238 ft | 552 kts | 97° |
| 2026-05-05 19:15 | 40.17548 | -170.71176 | 39238 ft | 552 kts | 98° |
| 2026-05-05 19:15 | 40.15219 | -170.61601 | 39239 ft | 553 kts | 98° |
| 2026-05-05 19:16 | 40.12884 | -170.52033 | 39237 ft | 554 kts | 98° |
| 2026-05-05 19:16 | 40.10538 | -170.42465 | 39238 ft | 552 kts | 98° |
| 2026-05-05 19:17 | 40.08176 | -170.32906 | 39240 ft | 553 kts | 98° |
| 2026-05-05 19:17 | 40.05817 | -170.23340 | 39239 ft | 554 kts | 98° |
| 2026-05-05 19:18 | 40.03441 | -170.13772 | 39241 ft | 555 kts | 99° |
| 2026-05-05 19:18 | 40.01050 | -170.04178 | 39239 ft | 555 kts | 99° |
| 2026-05-05 19:19 | 40.00156 | -169.99347 | 39239 ft | 541 kts | 88° |
| 2026-05-05 19:19 | 39.99701 | -169.94519 | 39238 ft | 534 kts | 85° |
| 2026-05-05 19:19 | 39.99079 | -169.84889 | 39236 ft | 533 kts | 83° |
| 2026-05-05 19:20 | 39.98557 | -169.75280 | 39238 ft | 532 kts | 83° |
| 2026-05-05 19:20 | 39.98016 | -169.65661 | 39238 ft | 533 kts | 83° |
| 2026-05-05 19:21 | 39.97460 | -169.56042 | 39238 ft | 531 kts | 83° |
| 2026-05-05 19:21 | 39.96892 | -169.46419 | 39239 ft | 533 kts | 84° |
| 2026-05-05 19:22 | 39.96296 | -169.36777 | 39239 ft | 534 kts | 84° |
| 2026-05-05 19:22 | 39.95695 | -169.27119 | 39239 ft | 535 kts | 84° |
| 2026-05-05 19:23 | 39.95097 | -169.17521 | 39239 ft | 535 kts | 85° |
| 2026-05-05 19:23 | 39.94479 | -169.07856 | 39238 ft | 535 kts | 85° |
| 2026-05-05 19:24 | 39.93856 | -168.98193 | 39239 ft | 536 kts | 85° |
| 2026-05-05 19:24 | 39.93220 | -168.88508 | 39239 ft | 536 kts | 85° |
| 2026-05-05 19:25 | 39.92582 | -168.78820 | 39239 ft | 537 kts | 86° |
| 2026-05-05 19:25 | 39.91935 | -168.69116 | 39238 ft | 538 kts | 86° |
| 2026-05-05 19:26 | 39.91276 | -168.59421 | 39239 ft | 538 kts | 86° |
| 2026-05-05 19:26 | 39.90609 | -168.49714 | 39239 ft | 537 kts | 87° |
| 2026-05-05 19:27 | 39.89936 | -168.40029 | 39238 ft | 538 kts | 87° |
| 2026-05-05 19:27 | 39.89255 | -168.30325 | 39239 ft | 538 kts | 88° |
| 2026-05-05 19:28 | 39.88563 | -168.20621 | 39239 ft | 538 kts | 88° |
| 2026-05-05 19:28 | 39.87863 | -168.10924 | 39238 ft | 538 kts | 88° |
| 2026-05-05 19:29 | 39.87156 | -168.01229 | 39239 ft | 538 kts | 88° |
| 2026-05-05 19:29 | 39.86441 | -167.91537 | 39239 ft | 538 kts | 88° |
| 2026-05-05 19:30 | 39.85719 | -167.81854 | 39239 ft | 538 kts | 88° |
| 2026-05-05 19:30 | 39.84988 | -167.72166 | 39237 ft | 538 kts | 88° |
| 2026-05-05 19:31 | 39.84250 | -167.62477 | 39238 ft | 538 kts | 88° |
| 2026-05-05 19:31 | 39.83503 | -167.52790 | 39239 ft | 538 kts | 89° |
| 2026-05-05 19:32 | 39.82747 | -167.43102 | 39239 ft | 539 kts | 89° |
| 2026-05-05 19:32 | 39.81984 | -167.33406 | 39239 ft | 539 kts | 89° |
| 2026-05-05 19:33 | 39.81212 | -167.23712 | 39239 ft | 539 kts | 89° |
| 2026-05-05 19:33 | 39.80437 | -167.14087 | 39239 ft | 538 kts | 90° |
| 2026-05-05 19:34 | 39.79645 | -167.04353 | 39239 ft | 538 kts | 90° |
| 2026-05-05 19:35 | 39.78453 | -166.89913 | 39239 ft | 537 kts | 91° |
| 2026-05-05 19:35 | 39.77647 | -166.80257 | 39238 ft | 537 kts | 91° |
| 2026-05-05 19:36 | 39.76833 | -166.70615 | 39239 ft | 536 kts | 91° |
| 2026-05-05 19:36 | 39.76013 | -166.60981 | 39239 ft | 536 kts | 91° |
| 2026-05-05 19:37 | 39.75187 | -166.51363 | 39237 ft | 535 kts | 92° |
| 2026-05-05 19:37 | 39.74351 | -166.41758 | 39196 ft | 535 kts | 92° |
| 2026-05-05 19:38 | 39.73507 | -166.32167 | 39201 ft | 534 kts | 92° |
| 2026-05-05 19:38 | 39.72660 | -166.22591 | 39188 ft | 533 kts | 92° |
| 2026-05-05 19:39 | 39.71806 | -166.13031 | 39195 ft | 533 kts | 92° |
| 2026-05-05 19:39 | 39.70944 | -166.03463 | 39188 ft | 533 kts | 92° |
| 2026-05-05 19:40 | 39.70074 | -165.93902 | 39191 ft | 533 kts | 93° |
| 2026-05-05 19:40 | 39.69195 | -165.84348 | 39184 ft | 533 kts | 93° |
| 2026-05-05 19:41 | 39.68308 | -165.74799 | 39183 ft | 533 kts | 93° |
| 2026-05-05 19:41 | 39.67414 | -165.65254 | 39182 ft | 532 kts | 93° |
| 2026-05-05 19:42 | 39.66515 | -165.55715 | 39184 ft | 533 kts | 93° |
| 2026-05-05 19:42 | 39.65614 | -165.46245 | 39184 ft | 533 kts | 94° |
| 2026-05-05 19:43 | 39.64698 | -165.36705 | 39183 ft | 533 kts | 94° |
| 2026-05-05 19:43 | 39.63771 | -165.27163 | 39176 ft | 533 kts | 94° |
| 2026-05-05 19:44 | 39.62836 | -165.17624 | 39174 ft | 533 kts | 94° |
| 2026-05-05 19:44 | 39.61894 | -165.08096 | 39174 ft | 532 kts | 95° |
| 2026-05-05 19:45 | 39.60947 | -164.98579 | 39174 ft | 532 kts | 95° |
| 2026-05-05 19:45 | 39.59993 | -164.89075 | 39174 ft | 531 kts | 95° |
| 2026-05-05 19:46 | 39.59035 | -164.79585 | 39173 ft | 530 kts | 95° |
| 2026-05-05 19:46 | 39.58069 | -164.70119 | 39175 ft | 530 kts | 95° |
| 2026-05-05 19:47 | 39.57094 | -164.60667 | 39173 ft | 529 kts | 96° |
| 2026-05-05 19:47 | 39.56115 | -164.51232 | 39175 ft | 528 kts | 96° |
| 2026-05-05 19:48 | 39.55131 | -164.41812 | 39175 ft | 527 kts | 96° |
| 2026-05-05 19:48 | 39.54140 | -164.32413 | 39174 ft | 526 kts | 96° |
| 2026-05-05 19:49 | 39.53142 | -164.23024 | 39174 ft | 526 kts | 96° |
| 2026-05-05 19:49 | 39.52138 | -164.13650 | 39174 ft | 525 kts | 97° |
| 2026-05-05 19:50 | 39.51129 | -164.04284 | 39175 ft | 525 kts | 97° |
| 2026-05-05 19:50 | 39.50113 | -163.94939 | 39175 ft | 524 kts | 97° |
| 2026-05-05 19:51 | 39.49263 | -163.87175 | 39173 ft | 524 kts | 97° |
| 2026-05-05 19:51 | 39.48233 | -163.77839 | 39173 ft | 524 kts | 97° |
| 2026-05-05 19:52 | 39.47196 | -163.68498 | 39174 ft | 524 kts | 97° |
| 2026-05-05 19:52 | 39.46149 | -163.59155 | 39174 ft | 525 kts | 98° |
| 2026-05-05 19:53 | 39.45094 | -163.49799 | 39175 ft | 525 kts | 98° |
| 2026-05-05 19:53 | 39.44033 | -163.40454 | 39175 ft | 525 kts | 98° |
| 2026-05-05 19:54 | 39.42962 | -163.31097 | 39174 ft | 526 kts | 98° |
| 2026-05-05 19:54 | 39.41883 | -163.21733 | 39175 ft | 526 kts | 98° |
| 2026-05-05 19:55 | 39.40796 | -163.12372 | 39173 ft | 526 kts | 98° |
| 2026-05-05 19:55 | 39.39699 | -163.03014 | 39165 ft | 526 kts | 98° |
| 2026-05-05 19:56 | 39.38597 | -162.93651 | 39165 ft | 527 kts | 99° |
| 2026-05-05 19:56 | 39.37488 | -162.84290 | 39165 ft | 527 kts | 99° |
| 2026-05-05 19:57 | 39.36372 | -162.74931 | 39165 ft | 527 kts | 99° |
| 2026-05-05 19:57 | 39.35248 | -162.65591 | 39165 ft | 526 kts | 99° |
| 2026-05-05 19:58 | 39.34125 | -162.56318 | 39165 ft | 526 kts | 99° |
| 2026-05-05 19:58 | 39.32988 | -162.46993 | 39165 ft | 525 kts | 99° |
| 2026-05-05 19:59 | 39.31846 | -162.37678 | 39165 ft | 525 kts | 100° |
| 2026-05-05 19:59 | 39.30694 | -162.28374 | 39164 ft | 524 kts | 100° |
| 2026-05-05 20:00 | 39.29535 | -162.19077 | 39159 ft | 524 kts | 100° |
| 2026-05-05 20:00 | 39.28371 | -162.09788 | 39155 ft | 524 kts | 100° |
| 2026-05-05 20:01 | 39.27200 | -162.00508 | 39154 ft | 524 kts | 100° |
| 2026-05-05 20:01 | 39.26023 | -161.91244 | 39155 ft | 523 kts | 101° |
| 2026-05-05 20:02 | 39.24841 | -161.81989 | 39153 ft | 523 kts | 101° |
| 2026-05-05 20:02 | 39.23650 | -161.72732 | 39157 ft | 523 kts | 101° |
| 2026-05-05 20:03 | 39.22450 | -161.63471 | 39154 ft | 523 kts | 101° |
| 2026-05-05 20:03 | 39.21243 | -161.54214 | 39156 ft | 524 kts | 101° |
| 2026-05-05 20:04 | 39.20031 | -161.44959 | 39153 ft | 524 kts | 102° |
| 2026-05-05 20:04 | 39.18808 | -161.35701 | 39165 ft | 524 kts | 102° |
| 2026-05-05 20:05 | 39.17577 | -161.26445 | 39166 ft | 524 kts | 102° |
| 2026-05-05 20:05 | 39.16340 | -161.17203 | 39165 ft | 524 kts | 102° |
| 2026-05-05 20:06 | 39.15097 | -161.07951 | 39165 ft | 524 kts | 102° |
| 2026-05-05 20:06 | 39.13845 | -160.98702 | 39164 ft | 524 kts | 102° |
| 2026-05-05 20:07 | 39.12589 | -160.89456 | 39165 ft | 524 kts | 102° |
| 2026-05-05 20:07 | 39.11322 | -160.80215 | 39166 ft | 524 kts | 103° |
| 2026-05-05 20:08 | 39.10048 | -160.70978 | 39166 ft | 524 kts | 103° |
| 2026-05-05 20:08 | 39.08776 | -160.61810 | 39164 ft | 524 kts | 103° |
| 2026-05-05 20:09 | 39.07489 | -160.52585 | 39165 ft | 523 kts | 103° |
| 2026-05-05 20:09 | 39.06198 | -160.43380 | 39145 ft | 523 kts | 103° |
| 2026-05-05 20:10 | 39.04898 | -160.34175 | 39134 ft | 523 kts | 103° |
| 2026-05-05 20:10 | 39.03588 | -160.24967 | 39137 ft | 523 kts | 103° |
| 2026-05-05 20:11 | 39.02273 | -160.15761 | 39138 ft | 523 kts | 103° |
| 2026-05-05 20:11 | 39.00948 | -160.06554 | 39134 ft | 524 kts | 103° |
| 2026-05-05 20:12 | 39.00201 | -159.97226 | 39142 ft | 528 kts | 91° |
| 2026-05-05 20:12 | 39.00459 | -159.87767 | 39096 ft | 531 kts | 90° |
| 2026-05-05 20:13 | 39.00870 | -159.78290 | 39093 ft | 531 kts | 89° |
| 2026-05-05 20:13 | 39.01292 | -159.68824 | 39091 ft | 531 kts | 90° |
| 2026-05-05 20:14 | 39.01682 | -159.59337 | 39090 ft | 531 kts | 90° |
| 2026-05-05 20:14 | 39.02050 | -159.49851 | 39091 ft | 531 kts | 90° |
| 2026-05-05 20:15 | 39.02407 | -159.40364 | 39093 ft | 531 kts | 90° |
| 2026-05-05 20:15 | 39.02761 | -159.30873 | 39081 ft | 531 kts | 90° |
| 2026-05-05 20:16 | 39.03108 | -159.21378 | 39045 ft | 531 kts | 90° |
| 2026-05-05 20:16 | 39.03442 | -159.11947 | 39048 ft | 532 kts | 90° |
| 2026-05-05 20:17 | 39.03777 | -159.02447 | 39055 ft | 531 kts | 91° |
| 2026-05-05 20:17 | 39.04099 | -158.92955 | 39054 ft | 532 kts | 91° |
| 2026-05-05 20:18 | 39.04415 | -158.83448 | 39055 ft | 532 kts | 91° |
| 2026-05-05 20:18 | 39.04722 | -158.73931 | 39054 ft | 533 kts | 91° |
| 2026-05-05 20:19 | 39.05024 | -158.64404 | 39054 ft | 533 kts | 91° |
| 2026-05-05 20:19 | 39.05317 | -158.54878 | 39054 ft | 533 kts | 91° |
| 2026-05-05 20:20 | 39.05603 | -158.45343 | 39054 ft | 533 kts | 91° |
| 2026-05-05 20:20 | 39.05877 | -158.35809 | 39054 ft | 533 kts | 92° |
| 2026-05-05 20:21 | 39.06144 | -158.26279 | 39028 ft | 533 kts | 92° |
| 2026-05-05 20:21 | 39.06404 | -158.16758 | 39028 ft | 533 kts | 92° |
| 2026-05-05 20:22 | 39.06662 | -158.07227 | 39027 ft | 532 kts | 92° |
| 2026-05-05 20:22 | 39.06908 | -157.97694 | 39022 ft | 533 kts | 92° |
| 2026-05-05 20:23 | 39.07144 | -157.88142 | 39016 ft | 535 kts | 92° |
| 2026-05-05 20:23 | 39.07374 | -157.78563 | 39015 ft | 536 kts | 92° |
| 2026-05-05 20:24 | 39.07598 | -157.69038 | 39018 ft | 536 kts | 93° |
| 2026-05-05 20:24 | 39.07818 | -157.59455 | 39011 ft | 536 kts | 93° |
| 2026-05-05 20:25 | 39.08028 | -157.49864 | 39024 ft | 537 kts | 93° |
| 2026-05-05 20:25 | 39.08229 | -157.40248 | 39023 ft | 537 kts | 93° |
| 2026-05-05 20:26 | 39.08424 | -157.30652 | 39022 ft | 537 kts | 93° |
| 2026-05-05 20:26 | 39.08605 | -157.21038 | 39016 ft | 537 kts | 94° |
| 2026-05-05 20:27 | 39.08781 | -157.11418 | 39014 ft | 538 kts | 94° |
| 2026-05-05 20:27 | 39.08957 | -157.01790 | 39019 ft | 538 kts | 94° |
| 2026-05-05 20:28 | 39.09119 | -156.92157 | 39013 ft | 539 kts | 94° |
| 2026-05-05 20:28 | 39.09270 | -156.82509 | 39023 ft | 539 kts | 94° |
| 2026-05-05 20:29 | 39.09417 | -156.72853 | 39012 ft | 540 kts | 94° |
| 2026-05-05 20:29 | 39.09556 | -156.63204 | 39014 ft | 540 kts | 94° |
| 2026-05-05 20:30 | 39.09687 | -156.53541 | 39022 ft | 540 kts | 95° |
| 2026-05-05 20:30 | 39.09810 | -156.43873 | 39019 ft | 540 kts | 95° |
| 2026-05-05 20:31 | 39.09924 | -156.34203 | 39057 ft | 540 kts | 95° |
| 2026-05-05 20:31 | 39.10031 | -156.24590 | 39072 ft | 540 kts | 95° |
| 2026-05-05 20:32 | 39.10131 | -156.14921 | 39072 ft | 540 kts | 95° |
| 2026-05-05 20:32 | 39.10224 | -156.05261 | 39072 ft | 540 kts | 95° |
| 2026-05-05 20:33 | 39.10307 | -155.95596 | 39071 ft | 540 kts | 95° |
| 2026-05-05 20:33 | 39.10378 | -155.85915 | 39075 ft | 542 kts | 95° |
| 2026-05-05 20:34 | 39.10445 | -155.76214 | 39072 ft | 542 kts | 95° |
| 2026-05-05 20:34 | 39.10504 | -155.66508 | 39080 ft | 542 kts | 95° |
| 2026-05-05 20:35 | 39.10555 | -155.56801 | 39082 ft | 542 kts | 96° |
| 2026-05-05 20:35 | 39.10601 | -155.47091 | 39045 ft | 542 kts | 96° |
| 2026-05-05 20:36 | 39.10636 | -155.37383 | 39018 ft | 543 kts | 96° |
| 2026-05-05 20:36 | 39.10663 | -155.27666 | 39011 ft | 542 kts | 96° |
| 2026-05-05 20:37 | 39.10682 | -155.18026 | 39015 ft | 543 kts | 96° |
| 2026-05-05 20:37 | 39.10693 | -155.08307 | 39019 ft | 543 kts | 96° |
| 2026-05-05 20:38 | 39.10692 | -154.98581 | 38995 ft | 543 kts | 96° |
| 2026-05-05 20:38 | 39.10688 | -154.90494 | 39003 ft | 543 kts | 96° |
| 2026-05-05 20:39 | 39.10672 | -154.79179 | 38996 ft | 544 kts | 96° |
| 2026-05-05 20:39 | 39.10652 | -154.69450 | 38993 ft | 543 kts | 96° |
| 2026-05-05 20:40 | 39.10630 | -154.61308 | 39000 ft | 543 kts | 96° |
| 2026-05-05 20:40 | 39.10594 | -154.51595 | 38991 ft | 542 kts | 96° |
| 2026-05-05 20:41 | 39.10549 | -154.41940 | 38999 ft | 543 kts | 97° |
| 2026-05-05 20:41 | 39.10496 | -154.32219 | 38994 ft | 543 kts | 97° |
| 2026-05-05 20:42 | 39.10435 | -154.22501 | 38997 ft | 542 kts | 97° |
| 2026-05-05 20:42 | 39.10366 | -154.12776 | 38990 ft | 543 kts | 97° |
| 2026-05-05 20:43 | 39.10292 | -154.03057 | 38990 ft | 544 kts | 97° |
| 2026-05-05 20:43 | 39.10209 | -153.93322 | 38991 ft | 544 kts | 97° |
| 2026-05-05 20:44 | 39.10117 | -153.83585 | 38987 ft | 544 kts | 97° |
| 2026-05-05 20:44 | 39.10014 | -153.73841 | 38985 ft | 544 kts | 97° |
| 2026-05-05 20:45 | 39.09845 | -153.59214 | 38987 ft | 545 kts | 97° |
| 2026-05-05 20:45 | 39.09724 | -153.49460 | 38991 ft | 545 kts | 97° |
| 2026-05-05 20:46 | 39.09595 | -153.39707 | 38990 ft | 545 kts | 97° |
| 2026-05-05 20:46 | 39.09458 | -153.29959 | 38991 ft | 545 kts | 97° |
| 2026-05-05 20:47 | 39.09312 | -153.20205 | 38999 ft | 546 kts | 97° |
| 2026-05-05 20:47 | 39.09236 | -153.15309 | 39136 ft | 547 kts | 97° |
| 2026-05-05 20:47 | 39.09158 | -153.10421 | 39302 ft | 546 kts | 97° |
| 2026-05-05 20:48 | 39.09079 | -153.05542 | 39514 ft | 544 kts | 97° |
| 2026-05-05 20:48 | 39.08998 | -153.00682 | 39698 ft | 543 kts | 97° |
| 2026-05-05 20:48 | 39.08913 | -152.95825 | 39858 ft | 542 kts | 97° |
| 2026-05-05 20:48 | 39.08826 | -152.90975 | 40001 ft | 542 kts | 96° |
| 2026-05-05 20:49 | 39.08738 | -152.86129 | 40115 ft | 542 kts | 96° |
| 2026-05-05 20:49 | 39.08648 | -152.81275 | 40227 ft | 542 kts | 96° |
| 2026-05-05 20:49 | 39.08558 | -152.76499 | 40342 ft | 542 kts | 96° |
| 2026-05-05 20:49 | 39.08465 | -152.71659 | 40479 ft | 541 kts | 96° |
| 2026-05-05 20:50 | 39.08370 | -152.66817 | 40589 ft | 541 kts | 96° |
| 2026-05-05 20:50 | 39.08272 | -152.61977 | 40694 ft | 541 kts | 96° |
| 2026-05-05 20:50 | 39.08173 | -152.57148 | 40802 ft | 540 kts | 96° |
| 2026-05-05 20:50 | 39.08072 | -152.52314 | 40894 ft | 540 kts | 96° |
| 2026-05-05 20:51 | 39.07863 | -152.42645 | 40923 ft | 541 kts | 96° |
| 2026-05-05 20:51 | 39.07646 | -152.32975 | 40925 ft | 540 kts | 96° |
| 2026-05-05 20:52 | 39.07422 | -152.23307 | 40925 ft | 541 kts | 96° |
| 2026-05-05 20:52 | 39.07189 | -152.13631 | 40916 ft | 541 kts | 96° |
| 2026-05-05 20:53 | 39.06948 | -152.03953 | 40915 ft | 541 kts | 96° |
| 2026-05-05 20:53 | 39.06699 | -151.94284 | 40926 ft | 541 kts | 96° |
| 2026-05-05 20:54 | 39.06443 | -151.84623 | 40925 ft | 540 kts | 96° |
| 2026-05-05 20:54 | 39.06180 | -151.75028 | 40925 ft | 540 kts | 96° |
| 2026-05-05 20:55 | 39.05908 | -151.65371 | 40925 ft | 540 kts | 96° |
| 2026-05-05 20:55 | 39.05628 | -151.55719 | 40925 ft | 540 kts | 96° |
| 2026-05-05 20:56 | 39.05340 | -151.46063 | 40931 ft | 540 kts | 96° |
| 2026-05-05 20:56 | 39.05044 | -151.36415 | 40944 ft | 540 kts | 96° |
| 2026-05-05 20:57 | 39.04740 | -151.26772 | 40943 ft | 539 kts | 97° |
| 2026-05-05 20:57 | 39.04429 | -151.17143 | 40943 ft | 539 kts | 97° |
| 2026-05-05 20:58 | 39.04109 | -151.07511 | 40943 ft | 538 kts | 97° |
| 2026-05-05 20:58 | 39.03783 | -150.97903 | 40943 ft | 538 kts | 97° |
| 2026-05-05 20:59 | 39.03448 | -150.88276 | 40943 ft | 538 kts | 97° |
| 2026-05-05 20:59 | 39.03106 | -150.78668 | 40943 ft | 538 kts | 97° |
| 2026-05-05 21:00 | 39.02755 | -150.69059 | 40944 ft | 538 kts | 97° |
| 2026-05-05 21:00 | 39.02397 | -150.59445 | 40943 ft | 538 kts | 97° |
| 2026-05-05 21:01 | 39.02031 | -150.49839 | 40943 ft | 538 kts | 97° |
| 2026-05-05 21:01 | 39.01657 | -150.40236 | 40943 ft | 537 kts | 97° |
| 2026-05-05 21:02 | 39.01279 | -150.30710 | 40943 ft | 537 kts | 97° |
| 2026-05-05 21:02 | 39.00890 | -150.21126 | 40943 ft | 537 kts | 97° |
| 2026-05-05 21:03 | 39.00493 | -150.11535 | 40944 ft | 537 kts | 97° |
| 2026-05-05 21:03 | 39.00103 | -150.01965 | 40939 ft | 537 kts | 95° |
| 2026-05-05 21:04 | 39.00315 | -149.92343 | 40943 ft | 539 kts | 90° |
| 2026-05-05 21:04 | 39.00703 | -149.82714 | 40943 ft | 539 kts | 90° |
| 2026-05-05 21:05 | 39.01115 | -149.73094 | 40943 ft | 539 kts | 90° |
| 2026-05-05 21:05 | 39.01511 | -149.63470 | 40943 ft | 539 kts | 90° |
| 2026-05-05 21:06 | 39.01891 | -149.53842 | 40943 ft | 539 kts | 90° |
| 2026-05-05 21:06 | 39.02260 | -149.44226 | 40943 ft | 539 kts | 90° |
| 2026-05-05 21:07 | 39.02621 | -149.34605 | 40943 ft | 538 kts | 90° |
| 2026-05-05 21:07 | 39.02975 | -149.24987 | 40943 ft | 538 kts | 90° |
| 2026-05-05 21:08 | 39.03320 | -149.15370 | 40943 ft | 538 kts | 90° |
| 2026-05-05 21:08 | 39.03658 | -149.05749 | 40944 ft | 539 kts | 90° |
| 2026-05-05 21:09 | 39.03988 | -148.96125 | 40943 ft | 538 kts | 90° |
| 2026-05-05 21:09 | 39.04308 | -148.86574 | 40943 ft | 538 kts | 90° |
| 2026-05-05 21:10 | 39.04622 | -148.76967 | 40943 ft | 538 kts | 90° |
| 2026-05-05 21:10 | 39.04927 | -148.67355 | 40943 ft | 538 kts | 91° |
| 2026-05-05 21:11 | 39.05225 | -148.57744 | 40943 ft | 538 kts | 91° |
| 2026-05-05 21:11 | 39.05515 | -148.48139 | 40943 ft | 538 kts | 91° |
| 2026-05-05 21:12 | 39.05797 | -148.38523 | 40950 ft | 538 kts | 91° |
| 2026-05-05 21:12 | 39.06072 | -148.28907 | 40953 ft | 538 kts | 91° |
| 2026-05-05 21:13 | 39.06338 | -148.19290 | 40952 ft | 538 kts | 91° |
| 2026-05-05 21:13 | 39.06597 | -148.09669 | 40952 ft | 538 kts | 91° |
| 2026-05-05 21:14 | 39.06848 | -148.00050 | 40952 ft | 538 kts | 91° |
| 2026-05-05 21:14 | 39.07090 | -147.90438 | 40952 ft | 537 kts | 91° |
| 2026-05-05 21:15 | 39.07325 | -147.80826 | 40952 ft | 537 kts | 91° |
| 2026-05-05 21:15 | 39.07551 | -147.71224 | 40952 ft | 537 kts | 91° |
| 2026-05-05 21:16 | 39.07770 | -147.61620 | 40952 ft | 537 kts | 91° |
| 2026-05-05 21:16 | 39.07981 | -147.52018 | 40952 ft | 537 kts | 91° |
| 2026-05-05 21:17 | 39.08183 | -147.42416 | 40953 ft | 536 kts | 91° |
| 2026-05-05 21:17 | 39.08378 | -147.32827 | 40952 ft | 536 kts | 91° |
| 2026-05-05 21:18 | 39.08565 | -147.23237 | 40953 ft | 536 kts | 91° |
| 2026-05-05 21:18 | 39.08744 | -147.13641 | 40952 ft | 536 kts | 91° |
| 2026-05-05 21:19 | 39.08915 | -147.04046 | 40952 ft | 536 kts | 91° |
| 2026-05-05 21:19 | 39.09079 | -146.94450 | 40953 ft | 536 kts | 91° |
| 2026-05-05 21:20 | 39.09234 | -146.84844 | 40953 ft | 536 kts | 91° |
| 2026-05-05 21:20 | 39.09381 | -146.75315 | 40952 ft | 536 kts | 91° |
| 2026-05-05 21:21 | 39.09521 | -146.65733 | 40952 ft | 536 kts | 91° |
| 2026-05-05 21:21 | 39.09653 | -146.56143 | 40952 ft | 536 kts | 91° |
| 2026-05-05 21:22 | 39.09776 | -146.46555 | 40952 ft | 536 kts | 91° |
| 2026-05-05 21:22 | 39.09892 | -146.36967 | 40954 ft | 536 kts | 91° |
| 2026-05-05 21:23 | 39.10001 | -146.27377 | 41025 ft | 536 kts | 91° |
| 2026-05-05 21:23 | 39.10101 | -146.17781 | 41027 ft | 536 kts | 91° |
| 2026-05-05 21:24 | 39.10194 | -146.08182 | 41024 ft | 536 kts | 91° |
| 2026-05-05 21:24 | 39.10279 | -145.98588 | 41028 ft | 536 kts | 91° |
| 2026-05-05 21:25 | 39.10355 | -145.88992 | 41030 ft | 536 kts | 91° |
| 2026-05-05 21:25 | 39.10424 | -145.79400 | 41025 ft | 536 kts | 91° |
| 2026-05-05 21:26 | 39.10486 | -145.69808 | 41026 ft | 536 kts | 91° |
| 2026-05-05 21:26 | 39.10539 | -145.60218 | 41027 ft | 536 kts | 91° |
| 2026-05-05 21:27 | 39.10584 | -145.50626 | 41030 ft | 536 kts | 92° |
| 2026-05-05 21:27 | 39.10622 | -145.41034 | 41024 ft | 536 kts | 92° |
| 2026-05-05 21:28 | 39.10651 | -145.31446 | 41030 ft | 536 kts | 92° |
| 2026-05-05 21:28 | 39.10673 | -145.21921 | 41027 ft | 536 kts | 92° |
| 2026-05-05 21:29 | 39.10687 | -145.12331 | 41029 ft | 536 kts | 92° |
| 2026-05-05 21:29 | 39.10693 | -145.02739 | 41027 ft | 536 kts | 92° |
| 2026-05-05 21:30 | 39.10692 | -144.94767 | 41033 ft | 536 kts | 92° |
| 2026-05-05 21:30 | 39.10684 | -144.85175 | 41035 ft | 536 kts | 92° |
| 2026-05-05 21:31 | 39.10668 | -144.75583 | 41037 ft | 536 kts | 92° |
| 2026-05-05 21:31 | 39.10644 | -144.65994 | 41033 ft | 536 kts | 92° |
| 2026-05-05 21:32 | 39.10612 | -144.56408 | 41035 ft | 535 kts | 92° |
| 2026-05-05 21:32 | 39.10573 | -144.46831 | 41036 ft | 535 kts | 92° |
| 2026-05-05 21:33 | 39.10525 | -144.37252 | 41029 ft | 535 kts | 92° |
| 2026-05-05 21:33 | 39.10470 | -144.27661 | 41024 ft | 536 kts | 92° |
| 2026-05-05 21:34 | 39.10407 | -144.18069 | 41028 ft | 536 kts | 92° |
| 2026-05-05 21:34 | 39.10336 | -144.08476 | 41027 ft | 536 kts | 92° |
| 2026-05-05 21:35 | 39.10257 | -143.98883 | 41033 ft | 536 kts | 92° |
| 2026-05-05 21:35 | 39.10170 | -143.89293 | 41036 ft | 535 kts | 92° |
| 2026-05-05 21:36 | 39.10075 | -143.79724 | 41035 ft | 534 kts | 92° |
| 2026-05-05 21:36 | 39.09973 | -143.70157 | 41036 ft | 534 kts | 92° |
| 2026-05-05 21:37 | 39.09863 | -143.60589 | 41034 ft | 534 kts | 92° |
| 2026-05-05 21:37 | 39.09746 | -143.51093 | 41034 ft | 534 kts | 92° |
| 2026-05-05 21:38 | 39.09621 | -143.41535 | 41040 ft | 534 kts | 92° |
| 2026-05-05 21:38 | 39.09487 | -143.31983 | 41037 ft | 533 kts | 93° |
| 2026-05-05 21:39 | 39.09346 | -143.22446 | 41038 ft | 533 kts | 92° |
| 2026-05-05 21:39 | 39.09198 | -143.12906 | 41036 ft | 532 kts | 93° |
| 2026-05-05 21:40 | 39.09042 | -143.03384 | 41039 ft | 532 kts | 93° |
| 2026-05-05 21:40 | 39.08878 | -142.93864 | 41036 ft | 532 kts | 93° |
| 2026-05-05 21:41 | 39.08706 | -142.84355 | 41037 ft | 532 kts | 93° |
| 2026-05-05 21:41 | 39.08527 | -142.74835 | 41034 ft | 532 kts | 93° |
| 2026-05-05 21:42 | 39.08340 | -142.65329 | 41037 ft | 531 kts | 93° |
| 2026-05-05 21:42 | 39.08146 | -142.55828 | 41037 ft | 531 kts | 93° |
| 2026-05-05 21:43 | 39.07944 | -142.46336 | 41041 ft | 530 kts | 93° |
| 2026-05-05 21:43 | 39.07734 | -142.36851 | 41036 ft | 530 kts | 93° |
| 2026-05-05 21:44 | 39.07517 | -142.27368 | 41034 ft | 530 kts | 93° |
| 2026-05-05 21:44 | 39.07294 | -142.17960 | 41034 ft | 529 kts | 93° |
| 2026-05-05 21:45 | 39.07062 | -142.08497 | 41035 ft | 529 kts | 93° |
| 2026-05-05 21:45 | 39.06823 | -141.99033 | 41036 ft | 529 kts | 93° |
| 2026-05-05 21:46 | 39.06575 | -141.89566 | 41037 ft | 527 kts | 93° |
| 2026-05-05 21:46 | 39.06322 | -141.80154 | 41035 ft | 527 kts | 93° |
| 2026-05-05 21:47 | 39.06060 | -141.70734 | 41040 ft | 527 kts | 93° |
| 2026-05-05 21:47 | 39.05792 | -141.61327 | 41037 ft | 526 kts | 93° |
| 2026-05-05 21:48 | 39.05516 | -141.51924 | 41035 ft | 526 kts | 93° |
| 2026-05-05 21:48 | 39.05232 | -141.42531 | 41035 ft | 525 kts | 94° |
| 2026-05-05 21:49 | 39.04942 | -141.33149 | 41037 ft | 525 kts | 94° |
| 2026-05-05 21:49 | 39.04644 | -141.23782 | 41044 ft | 524 kts | 94° |
| 2026-05-05 21:50 | 39.04339 | -141.14422 | 41044 ft | 523 kts | 94° |
| 2026-05-05 21:50 | 39.04027 | -141.05075 | 41044 ft | 523 kts | 94° |
| 2026-05-05 21:51 | 39.03708 | -140.95728 | 41052 ft | 523 kts | 94° |
| 2026-05-05 21:51 | 39.03382 | -140.86400 | 41054 ft | 522 kts | 94° |
| 2026-05-05 21:52 | 39.02879 | -140.72424 | 41054 ft | 521 kts | 94° |
| 2026-05-05 21:53 | 39.02535 | -140.63123 | 41054 ft | 521 kts | 94° |
| 2026-05-05 21:53 | 39.02183 | -140.53822 | 41055 ft | 520 kts | 94° |
| 2026-05-05 21:54 | 39.01825 | -140.44536 | 41061 ft | 520 kts | 94° |
| 2026-05-05 21:54 | 39.01460 | -140.35256 | 41055 ft | 520 kts | 94° |
| 2026-05-05 21:55 | 39.01088 | -140.25979 | 41054 ft | 519 kts | 94° |
| 2026-05-05 21:55 | 39.00708 | -140.16711 | 41055 ft | 519 kts | 94° |
| 2026-05-05 21:56 | 39.00321 | -140.07450 | 41054 ft | 519 kts | 94° |
| 2026-05-05 21:56 | 38.99926 | -139.98185 | 41054 ft | 519 kts | 94° |
| 2026-05-05 21:57 | 38.99428 | -139.88969 | 41054 ft | 515 kts | 95° |
| 2026-05-05 21:57 | 38.98869 | -139.79795 | 41054 ft | 514 kts | 95° |
| 2026-05-05 21:58 | 38.98319 | -139.70697 | 41055 ft | 514 kts | 95° |
| 2026-05-05 21:58 | 38.97772 | -139.61535 | 41068 ft | 514 kts | 95° |
| 2026-05-05 21:59 | 38.97223 | -139.52386 | 41084 ft | 513 kts | 95° |
| 2026-05-05 21:59 | 38.96669 | -139.43252 | 41084 ft | 512 kts | 95° |
| 2026-05-05 22:00 | 38.96107 | -139.34129 | 41078 ft | 512 kts | 95° |
| 2026-05-05 22:00 | 38.95538 | -139.25016 | 41083 ft | 512 kts | 95° |
| 2026-05-05 22:01 | 38.94962 | -139.15908 | 41084 ft | 511 kts | 95° |
| 2026-05-05 22:01 | 38.94380 | -139.06810 | 41082 ft | 511 kts | 95° |
| 2026-05-05 22:02 | 38.93791 | -138.97721 | 41084 ft | 510 kts | 95° |
| 2026-05-05 22:02 | 38.93197 | -138.88650 | 41082 ft | 510 kts | 95° |
| 2026-05-05 22:03 | 38.92595 | -138.79586 | 41083 ft | 509 kts | 95° |
| 2026-05-05 22:03 | 38.91988 | -138.70535 | 41083 ft | 508 kts | 95° |
| 2026-05-05 22:04 | 38.91378 | -138.61565 | 41084 ft | 508 kts | 95° |
| 2026-05-05 22:04 | 38.90758 | -138.52534 | 41082 ft | 507 kts | 95° |
| 2026-05-05 22:05 | 38.90132 | -138.43522 | 41083 ft | 507 kts | 95° |
| 2026-05-05 22:05 | 38.89499 | -138.34512 | 41079 ft | 507 kts | 95° |
| 2026-05-05 22:06 | 38.88860 | -138.25512 | 41079 ft | 506 kts | 95° |
| 2026-05-05 22:06 | 38.88214 | -138.16516 | 41083 ft | 506 kts | 95° |
| 2026-05-05 22:07 | 38.87561 | -138.07522 | 41081 ft | 506 kts | 95° |
| 2026-05-05 22:07 | 38.86901 | -137.98531 | 41084 ft | 506 kts | 95° |
| 2026-05-05 22:08 | 38.86237 | -137.89571 | 41083 ft | 502 kts | 95° |
| 2026-05-05 22:08 | 38.85570 | -137.80669 | 41077 ft | 500 kts | 95° |
| 2026-05-05 22:09 | 38.84897 | -137.71784 | 41083 ft | 500 kts | 96° |
| 2026-05-05 22:09 | 38.84218 | -137.62904 | 41084 ft | 500 kts | 96° |
| 2026-05-05 22:10 | 38.83532 | -137.54025 | 41084 ft | 500 kts | 96° |
| 2026-05-05 22:10 | 38.82840 | -137.45150 | 41084 ft | 500 kts | 96° |
| 2026-05-05 22:11 | 38.82140 | -137.36273 | 41084 ft | 500 kts | 96° |
| 2026-05-05 22:11 | 38.81440 | -137.27474 | 41083 ft | 499 kts | 96° |
| 2026-05-05 22:12 | 38.80725 | -137.18569 | 41084 ft | 498 kts | 96° |
| 2026-05-05 22:12 | 38.80013 | -137.09794 | 41082 ft | 498 kts | 96° |
| 2026-05-05 22:13 | 38.79291 | -137.00969 | 41078 ft | 497 kts | 96° |
| 2026-05-05 22:13 | 38.78563 | -136.92162 | 41078 ft | 496 kts | 96° |
| 2026-05-05 22:14 | 38.77830 | -136.83368 | 41089 ft | 496 kts | 96° |
| 2026-05-05 22:14 | 38.77091 | -136.74588 | 41095 ft | 495 kts | 96° |
| 2026-05-05 22:15 | 38.76346 | -136.65820 | 41089 ft | 495 kts | 96° |
| 2026-05-05 22:15 | 38.75596 | -136.57065 | 41084 ft | 494 kts | 96° |
| 2026-05-05 22:16 | 38.74839 | -136.48311 | 41094 ft | 494 kts | 96° |
| 2026-05-05 22:16 | 38.74076 | -136.39563 | 41091 ft | 494 kts | 96° |
| 2026-05-05 22:17 | 38.73307 | -136.30823 | 41088 ft | 493 kts | 96° |
| 2026-05-05 22:17 | 38.72532 | -136.22096 | 41092 ft | 493 kts | 96° |
| 2026-05-05 22:18 | 38.71751 | -136.13371 | 41087 ft | 493 kts | 96° |
| 2026-05-05 22:18 | 38.70964 | -136.04653 | 41093 ft | 493 kts | 96° |
| 2026-05-05 22:19 | 38.70305 | -135.97405 | 41085 ft | 493 kts | 96° |
| 2026-05-05 22:19 | 38.69508 | -135.88714 | 41085 ft | 490 kts | 96° |
| 2026-05-05 22:20 | 38.68709 | -135.80063 | 41087 ft | 489 kts | 96° |
| 2026-05-05 22:20 | 38.67904 | -135.71429 | 41087 ft | 488 kts | 96° |
| 2026-05-05 22:21 | 38.67094 | -135.62805 | 41095 ft | 488 kts | 96° |
| 2026-05-05 22:21 | 38.66279 | -135.54197 | 41087 ft | 487 kts | 97° |
| 2026-05-05 22:22 | 38.65458 | -135.45592 | 41088 ft | 487 kts | 97° |
| 2026-05-05 22:22 | 38.64631 | -135.37004 | 41094 ft | 486 kts | 97° |
| 2026-05-05 22:23 | 38.63800 | -135.28432 | 41094 ft | 486 kts | 97° |
| 2026-05-05 22:23 | 38.62964 | -135.19871 | 41096 ft | 485 kts | 97° |
| 2026-05-05 22:24 | 38.62123 | -135.11331 | 41108 ft | 484 kts | 97° |
| 2026-05-05 22:24 | 38.61277 | -135.02801 | 41100 ft | 483 kts | 97° |
| 2026-05-05 22:25 | 38.60432 | -134.94352 | 41093 ft | 482 kts | 97° |
| 2026-05-05 22:25 | 38.59578 | -134.85868 | 41099 ft | 481 kts | 97° |
| 2026-05-05 22:26 | 38.58719 | -134.77400 | 41095 ft | 480 kts | 97° |
| 2026-05-05 22:26 | 38.57855 | -134.68947 | 41095 ft | 479 kts | 97° |
| 2026-05-05 22:27 | 38.56986 | -134.60510 | 41105 ft | 478 kts | 98° |
| 2026-05-05 22:27 | 38.56114 | -134.52099 | 41103 ft | 477 kts | 98° |
| 2026-05-05 22:28 | 38.55237 | -134.43697 | 41105 ft | 477 kts | 98° |
| 2026-05-05 22:28 | 38.54355 | -134.35313 | 41102 ft | 476 kts | 98° |
| 2026-05-05 22:29 | 38.53469 | -134.26940 | 41105 ft | 476 kts | 98° |
| 2026-05-05 22:29 | 38.52576 | -134.18569 | 41105 ft | 476 kts | 98° |
| 2026-05-05 22:30 | 38.51678 | -134.10204 | 41092 ft | 476 kts | 98° |
| 2026-05-05 22:30 | 38.50774 | -134.01843 | 41095 ft | 475 kts | 98° |
| 2026-05-05 22:31 | 38.49866 | -133.93498 | 41105 ft | 474 kts | 98° |
| 2026-05-05 22:31 | 38.48954 | -133.85184 | 41089 ft | 473 kts | 98° |
| 2026-05-05 22:32 | 38.48038 | -133.76878 | 41087 ft | 473 kts | 98° |
| 2026-05-05 22:32 | 38.47116 | -133.68572 | 41084 ft | 473 kts | 98° |
| 2026-05-05 22:33 | 38.46188 | -133.60268 | 41095 ft | 473 kts | 98° |
| 2026-05-05 22:33 | 38.45254 | -133.51970 | 41094 ft | 473 kts | 98° |
| 2026-05-05 22:34 | 38.44315 | -133.43679 | 41094 ft | 472 kts | 98° |
| 2026-05-05 22:34 | 38.43371 | -133.35400 | 41091 ft | 472 kts | 98° |
| 2026-05-05 22:35 | 38.42422 | -133.27125 | 41085 ft | 471 kts | 98° |
| 2026-05-05 22:35 | 38.41476 | -133.18930 | 41085 ft | 471 kts | 98° |
| 2026-05-05 22:36 | 38.40516 | -133.10670 | 41091 ft | 470 kts | 98° |
| 2026-05-05 22:36 | 38.39552 | -133.02425 | 41094 ft | 470 kts | 98° |
| 2026-05-05 22:37 | 38.38583 | -132.94188 | 41090 ft | 470 kts | 98° |
| 2026-05-05 22:37 | 38.37608 | -132.85955 | 41095 ft | 470 kts | 98° |
| 2026-05-05 22:38 | 38.36630 | -132.77738 | 41089 ft | 469 kts | 98° |
| 2026-05-05 22:38 | 38.35645 | -132.69524 | 41094 ft | 469 kts | 98° |
| 2026-05-05 22:39 | 38.34656 | -132.61319 | 41094 ft | 468 kts | 98° |
| 2026-05-05 22:39 | 38.33663 | -132.53130 | 41086 ft | 468 kts | 98° |
| 2026-05-05 22:40 | 38.32663 | -132.44937 | 41092 ft | 468 kts | 98° |
| 2026-05-05 22:40 | 38.31658 | -132.36751 | 41089 ft | 468 kts | 98° |
| 2026-05-05 22:41 | 38.30648 | -132.28567 | 41091 ft | 468 kts | 98° |
| 2026-05-05 22:41 | 38.29630 | -132.20377 | 41094 ft | 468 kts | 98° |
| 2026-05-05 22:42 | 38.28608 | -132.12195 | 41094 ft | 468 kts | 98° |
| 2026-05-05 22:42 | 38.27579 | -132.04008 | 41102 ft | 468 kts | 98° |
| 2026-05-05 22:43 | 38.26552 | -131.95883 | 41104 ft | 468 kts | 98° |
| 2026-05-05 22:43 | 38.25513 | -131.87710 | 41094 ft | 468 kts | 98° |
| 2026-05-05 22:44 | 38.24469 | -131.79546 | 41103 ft | 467 kts | 98° |
| 2026-05-05 22:44 | 38.23420 | -131.71384 | 41088 ft | 467 kts | 99° |
| 2026-05-05 22:45 | 38.22366 | -131.63236 | 41092 ft | 467 kts | 99° |
| 2026-05-05 22:45 | 38.21307 | -131.55095 | 41094 ft | 466 kts | 99° |
| 2026-05-05 22:46 | 38.20243 | -131.46960 | 41090 ft | 466 kts | 99° |
| 2026-05-05 22:46 | 38.19175 | -131.38833 | 41088 ft | 466 kts | 99° |
| 2026-05-05 22:47 | 38.18101 | -131.30715 | 41089 ft | 466 kts | 99° |
| 2026-05-05 22:47 | 38.17023 | -131.22607 | 41090 ft | 465 kts | 99° |
| 2026-05-05 22:48 | 38.15941 | -131.14514 | 41088 ft | 464 kts | 99° |
| 2026-05-05 22:48 | 38.14856 | -131.06439 | 41093 ft | 464 kts | 99° |
| 2026-05-05 22:49 | 38.13765 | -130.98368 | 41090 ft | 463 kts | 99° |
| 2026-05-05 22:49 | 38.12671 | -130.90311 | 41094 ft | 463 kts | 99° |
| 2026-05-05 22:50 | 38.11571 | -130.82257 | 41094 ft | 462 kts | 99° |
| 2026-05-05 22:50 | 38.10467 | -130.74220 | 41094 ft | 462 kts | 99° |
| 2026-05-05 22:51 | 38.09358 | -130.66181 | 41094 ft | 462 kts | 99° |
| 2026-05-05 22:51 | 38.08244 | -130.58156 | 41088 ft | 462 kts | 99° |
| 2026-05-05 22:52 | 38.07126 | -130.50137 | 41094 ft | 461 kts | 99° |
| 2026-05-05 22:52 | 38.06002 | -130.42125 | 41090 ft | 461 kts | 99° |
| 2026-05-05 22:53 | 38.04874 | -130.34114 | 41090 ft | 461 kts | 99° |
| 2026-05-05 22:53 | 38.03749 | -130.26172 | 41087 ft | 460 kts | 99° |
| 2026-05-05 22:54 | 38.02611 | -130.18181 | 41091 ft | 460 kts | 99° |
| 2026-05-05 22:54 | 38.01469 | -130.10194 | 41094 ft | 461 kts | 99° |
| 2026-05-05 22:55 | 38.00320 | -130.02202 | 41086 ft | 461 kts | 99° |
| 2026-05-05 22:55 | 37.99149 | -129.94214 | 41086 ft | 461 kts | 99° |
| 2026-05-05 22:56 | 37.97932 | -129.86243 | 41094 ft | 461 kts | 99° |
| 2026-05-05 22:56 | 37.96706 | -129.78270 | 41094 ft | 461 kts | 99° |
| 2026-05-05 22:57 | 37.95481 | -129.70297 | 41089 ft | 461 kts | 99° |
| 2026-05-05 22:57 | 37.94254 | -129.62323 | 41094 ft | 461 kts | 99° |
| 2026-05-05 22:58 | 37.93022 | -129.54352 | 41090 ft | 461 kts | 99° |
| 2026-05-05 22:58 | 37.91784 | -129.46379 | 41086 ft | 462 kts | 99° |
| 2026-05-05 22:59 | 37.90539 | -129.38399 | 41090 ft | 462 kts | 99° |
| 2026-05-05 22:59 | 37.89287 | -129.30418 | 41092 ft | 462 kts | 99° |
| 2026-05-05 23:00 | 37.87400 | -129.18449 | 41097 ft | 462 kts | 99° |
| 2026-05-05 23:00 | 37.86134 | -129.10469 | 41089 ft | 462 kts | 99° |
| 2026-05-05 23:01 | 37.84864 | -129.02495 | 41091 ft | 462 kts | 99° |
| 2026-05-05 23:01 | 37.83587 | -128.94521 | 41099 ft | 463 kts | 99° |
| 2026-05-05 23:02 | 37.82306 | -128.86554 | 41089 ft | 462 kts | 99° |
| 2026-05-05 23:02 | 37.81029 | -128.78647 | 41087 ft | 462 kts | 99° |
| 2026-05-05 23:03 | 37.79740 | -128.70704 | 41098 ft | 461 kts | 99° |
| 2026-05-05 23:03 | 37.78446 | -128.62761 | 41087 ft | 461 kts | 99° |
| 2026-05-05 23:04 | 37.77146 | -128.54825 | 41095 ft | 461 kts | 99° |
| 2026-05-05 23:04 | 37.75843 | -128.46902 | 41091 ft | 460 kts | 99° |
| 2026-05-05 23:05 | 37.74536 | -128.38986 | 41095 ft | 460 kts | 99° |
| 2026-05-05 23:05 | 37.73226 | -128.31091 | 41085 ft | 459 kts | 99° |
| 2026-05-05 23:06 | 37.72134 | -128.24535 | 41085 ft | 459 kts | 99° |
| 2026-05-05 23:06 | 37.70816 | -128.16651 | 41093 ft | 459 kts | 99° |
| 2026-05-05 23:07 | 37.69493 | -128.08775 | 41089 ft | 458 kts | 99° |
| 2026-05-05 23:07 | 37.68166 | -128.00907 | 41091 ft | 458 kts | 99° |
| 2026-05-05 23:08 | 37.66834 | -127.93042 | 41088 ft | 458 kts | 99° |
| 2026-05-05 23:08 | 37.65496 | -127.85174 | 41089 ft | 459 kts | 99° |
| 2026-05-05 23:09 | 37.64152 | -127.77307 | 41090 ft | 459 kts | 99° |
| 2026-05-05 23:09 | 37.62801 | -127.69431 | 41089 ft | 459 kts | 99° |
| 2026-05-05 23:10 | 37.61445 | -127.61564 | 41087 ft | 459 kts | 99° |
| 2026-05-05 23:10 | 37.60083 | -127.53692 | 41082 ft | 460 kts | 99° |
| 2026-05-05 23:11 | 37.58714 | -127.45815 | 41082 ft | 460 kts | 99° |
| 2026-05-05 23:11 | 37.57339 | -127.37932 | 41081 ft | 461 kts | 99° |
| 2026-05-05 23:12 | 37.55956 | -127.30039 | 41082 ft | 461 kts | 99° |
| 2026-05-05 23:12 | 37.54568 | -127.22148 | 41081 ft | 461 kts | 99° |
| 2026-05-05 23:13 | 37.53173 | -127.14252 | 41080 ft | 462 kts | 99° |
| 2026-05-05 23:13 | 37.51770 | -127.06345 | 41083 ft | 462 kts | 99° |
| 2026-05-05 23:14 | 37.50648 | -126.98398 | 41087 ft | 459 kts | 92° |
| 2026-05-05 23:14 | 37.50196 | -126.90431 | 41083 ft | 459 kts | 90° |
| 2026-05-05 23:15 | 37.49853 | -126.82420 | 41081 ft | 458 kts | 90° |
| 2026-05-05 23:15 | 37.49517 | -126.74410 | 41083 ft | 458 kts | 90° |
| 2026-05-05 23:16 | 37.49165 | -126.66401 | 41083 ft | 458 kts | 90° |
| 2026-05-05 23:16 | 37.48800 | -126.58393 | 41082 ft | 458 kts | 90° |
| 2026-05-05 23:17 | 37.48428 | -126.50391 | 41079 ft | 457 kts | 90° |
| 2026-05-05 23:17 | 37.48051 | -126.42401 | 41083 ft | 457 kts | 90° |
| 2026-05-05 23:18 | 37.47670 | -126.34419 | 41079 ft | 457 kts | 90° |
| 2026-05-05 23:18 | 37.47283 | -126.26442 | 41083 ft | 456 kts | 90° |
| 2026-05-05 23:19 | 37.46892 | -126.18480 | 41083 ft | 456 kts | 90° |
| 2026-05-05 23:19 | 37.46496 | -126.10513 | 41084 ft | 456 kts | 90° |
| 2026-05-05 23:20 | 37.46094 | -126.02555 | 41083 ft | 455 kts | 90° |
| 2026-05-05 23:20 | 37.45687 | -125.94602 | 41083 ft | 455 kts | 90° |
| 2026-05-05 23:21 | 37.45275 | -125.86643 | 41083 ft | 456 kts | 90° |
| 2026-05-05 23:21 | 37.44857 | -125.78682 | 41083 ft | 456 kts | 90° |
| 2026-05-05 23:22 | 37.44433 | -125.70715 | 41083 ft | 456 kts | 90° |
| 2026-05-05 23:22 | 37.44004 | -125.62740 | 41083 ft | 457 kts | 90° |
| 2026-05-05 23:23 | 37.43569 | -125.54757 | 41083 ft | 458 kts | 90° |
| 2026-05-05 23:23 | 37.43127 | -125.46762 | 41083 ft | 458 kts | 90° |
| 2026-05-05 23:24 | 37.42680 | -125.38764 | 41083 ft | 459 kts | 90° |
| 2026-05-05 23:24 | 37.42230 | -125.30805 | 41083 ft | 459 kts | 90° |
| 2026-05-05 23:25 | 37.41768 | -125.22737 | 41083 ft | 459 kts | 90° |
| 2026-05-05 23:25 | 37.41306 | -125.14771 | 41083 ft | 460 kts | 90° |
| 2026-05-05 23:26 | 37.40836 | -125.06743 | 41083 ft | 460 kts | 91° |
| 2026-05-05 23:26 | 37.40359 | -124.98706 | 41093 ft | 461 kts | 91° |
| 2026-05-05 23:27 | 37.39877 | -124.90663 | 41084 ft | 462 kts | 91° |
| 2026-05-05 23:27 | 37.39388 | -124.82612 | 41094 ft | 462 kts | 91° |
| 2026-05-05 23:28 | 37.38894 | -124.74559 | 41094 ft | 462 kts | 91° |
| 2026-05-05 23:28 | 37.38394 | -124.66501 | 41094 ft | 462 kts | 91° |
| 2026-05-05 23:29 | 37.37888 | -124.58438 | 41094 ft | 462 kts | 91° |
| 2026-05-05 23:29 | 37.37377 | -124.50382 | 41094 ft | 462 kts | 91° |
| 2026-05-05 23:30 | 37.36861 | -124.42325 | 41089 ft | 462 kts | 91° |
| 2026-05-05 23:30 | 37.36338 | -124.34264 | 41093 ft | 462 kts | 91° |
| 2026-05-05 23:31 | 37.35811 | -124.26212 | 41089 ft | 462 kts | 91° |
| 2026-05-05 23:31 | 37.35278 | -124.18162 | 41094 ft | 462 kts | 91° |
| 2026-05-05 23:32 | 37.34740 | -124.10113 | 41088 ft | 462 kts | 91° |
| 2026-05-05 23:32 | 37.34200 | -124.02120 | 41094 ft | 462 kts | 91° |
| 2026-05-05 23:33 | 37.33651 | -123.94069 | 41087 ft | 463 kts | 91° |
| 2026-05-05 23:33 | 37.33096 | -123.85996 | 41088 ft | 464 kts | 91° |
| 2026-05-05 23:34 | 37.32532 | -123.77909 | 41091 ft | 464 kts | 91° |
| 2026-05-05 23:34 | 37.31964 | -123.69832 | 41094 ft | 465 kts | 91° |
| 2026-05-05 23:35 | 37.31390 | -123.61737 | 41094 ft | 466 kts | 91° |
| 2026-05-05 23:35 | 37.30809 | -123.53631 | 41090 ft | 466 kts | 91° |
| 2026-05-05 23:36 | 37.30222 | -123.45525 | 41091 ft | 466 kts | 91° |
| 2026-05-05 23:36 | 37.29629 | -123.37408 | 41094 ft | 467 kts | 91° |
| 2026-05-05 23:37 | 37.29030 | -123.29282 | 41094 ft | 468 kts | 91° |
| 2026-05-05 23:37 | 37.28424 | -123.21147 | 41087 ft | 468 kts | 91° |
| 2026-05-05 23:38 | 37.27813 | -123.13007 | 41085 ft | 469 kts | 91° |
| 2026-05-05 23:38 | 37.27194 | -123.04855 | 41083 ft | 469 kts | 92° |
| 2026-05-05 23:39 | 37.26574 | -122.96755 | 41091 ft | 469 kts | 92° |
| 2026-05-05 23:39 | 37.25557 | -122.88643 | 41094 ft | 475 kts | 102° |
| 2026-05-05 23:40 | 37.22802 | -122.81049 | 41097 ft | 485 kts | 119° |
| 2026-05-05 23:40 | 37.18962 | -122.74051 | 41090 ft | 488 kts | 121° |
| 2026-05-05 23:41 | 37.15067 | -122.67090 | 41094 ft | 488 kts | 121° |
| 2026-05-05 23:41 | 37.11171 | -122.60120 | 41091 ft | 489 kts | 121° |
| 2026-05-05 23:42 | 37.07267 | -122.53144 | 41093 ft | 489 kts | 121° |
| 2026-05-05 23:42 | 37.03357 | -122.46171 | 41088 ft | 489 kts | 121° |
| 2026-05-05 23:43 | 36.99444 | -122.39204 | 41089 ft | 490 kts | 121° |
| 2026-05-05 23:43 | 36.95520 | -122.32230 | 41079 ft | 490 kts | 121° |
| 2026-05-05 23:44 | 36.91588 | -122.25258 | 41084 ft | 491 kts | 121° |
| 2026-05-05 23:44 | 36.87648 | -122.18290 | 41095 ft | 491 kts | 121° |
| 2026-05-05 23:45 | 36.83697 | -122.11312 | 41091 ft | 492 kts | 122° |
| 2026-05-05 23:45 | 36.79739 | -122.04336 | 41086 ft | 493 kts | 122° |
| 2026-05-05 23:46 | 36.75771 | -121.97358 | 41095 ft | 494 kts | 122° |
| 2026-05-05 23:46 | 36.71789 | -121.90370 | 41088 ft | 495 kts | 122° |
| 2026-05-05 23:47 | 36.67795 | -121.83377 | 41088 ft | 495 kts | 122° |
| 2026-05-05 23:47 | 36.63797 | -121.76397 | 41095 ft | 495 kts | 122° |
| 2026-05-05 23:48 | 36.59793 | -121.69409 | 41084 ft | 496 kts | 122° |
| 2026-05-05 23:48 | 36.55780 | -121.62419 | 41080 ft | 497 kts | 122° |
| 2026-05-05 23:49 | 36.51756 | -121.55438 | 41077 ft | 497 kts | 123° |
| 2026-05-05 23:49 | 36.47728 | -121.48452 | 41070 ft | 496 kts | 123° |
| 2026-05-05 23:50 | 36.43701 | -121.41490 | 41073 ft | 496 kts | 123° |
| 2026-05-05 23:50 | 36.39698 | -121.34578 | 41073 ft | 497 kts | 123° |
| 2026-05-05 23:51 | 36.35656 | -121.27615 | 41073 ft | 497 kts | 123° |
| 2026-05-05 23:51 | 36.31613 | -121.20663 | 41070 ft | 497 kts | 123° |
| 2026-05-05 23:52 | 36.27560 | -121.13715 | 41074 ft | 497 kts | 123° |
| 2026-05-05 23:52 | 36.23511 | -121.06776 | 41064 ft | 497 kts | 123° |
| 2026-05-05 23:53 | 36.19451 | -120.99842 | 41065 ft | 498 kts | 123° |
| 2026-05-05 23:53 | 36.16048 | -120.94031 | 41064 ft | 498 kts | 123° |
| 2026-05-05 23:54 | 36.11313 | -120.85968 | 41064 ft | 498 kts | 123° |
| 2026-05-05 23:54 | 36.07915 | -120.80195 | 41063 ft | 499 kts | 124° |
| 2026-05-05 23:55 | 36.03824 | -120.73259 | 41063 ft | 500 kts | 124° |
| 2026-05-05 23:55 | 35.99721 | -120.66319 | 41062 ft | 500 kts | 124° |
| 2026-05-05 23:56 | 35.95618 | -120.59391 | 41063 ft | 501 kts | 125° |
| 2026-05-05 23:56 | 35.91485 | -120.52421 | 41071 ft | 504 kts | 125° |
| 2026-05-05 23:57 | 35.87338 | -120.45447 | 41071 ft | 504 kts | 125° |
| 2026-05-05 23:57 | 35.83187 | -120.38483 | 41064 ft | 504 kts | 125° |
| 2026-05-05 23:58 | 35.79032 | -120.31523 | 41063 ft | 504 kts | 125° |
| 2026-05-05 23:58 | 35.74875 | -120.24572 | 41065 ft | 504 kts | 125° |
| 2026-05-05 23:59 | 35.70739 | -120.17676 | 41063 ft | 504 kts | 125° |
| 2026-05-05 23:59 | 35.66255 | -120.11069 | 41063 ft | 505 kts | 137° |
| 2026-05-06 00:00 | 35.60467 | -120.06088 | 41055 ft | 505 kts | 148° |
| 2026-05-06 00:00 | 35.54493 | -120.01622 | 41054 ft | 507 kts | 148° |
| 2026-05-06 00:01 | 35.48479 | -119.97113 | 40921 ft | 501 kts | 148° |
| 2026-05-06 00:01 | 35.45526 | -119.94898 | 40433 ft | 497 kts | 148° |
| 2026-05-06 00:01 | 35.42558 | -119.92670 | 39522 ft | 503 kts | 148° |
| 2026-05-06 00:02 | 35.39578 | -119.90431 | 38662 ft | 506 kts | 147° |
| 2026-05-06 00:02 | 35.37008 | -119.88503 | 38006 ft | 509 kts | 147° |
| 2026-05-06 00:02 | 35.34062 | -119.86298 | 37323 ft | 508 kts | 147° |
| 2026-05-06 00:02 | 35.31051 | -119.84049 | 36636 ft | 506 kts | 146° |
| 2026-05-06 00:03 | 35.28124 | -119.81692 | 35949 ft | 502 kts | 141° |
| 2026-05-06 00:03 | 35.25332 | -119.79134 | 35231 ft | 500 kts | 139° |
| 2026-05-06 00:03 | 35.22570 | -119.76546 | 34477 ft | 501 kts | 139° |
| 2026-05-06 00:03 | 35.19799 | -119.73947 | 33662 ft | 502 kts | 138° |
| 2026-05-06 00:04 | 35.17024 | -119.71349 | 32838 ft | 503 kts | 138° |
| 2026-05-06 00:04 | 35.14251 | -119.68760 | 32248 ft | 499 kts | 138° |
| 2026-05-06 00:04 | 35.11503 | -119.66199 | 31681 ft | 494 kts | 138° |
| 2026-05-06 00:04 | 35.08783 | -119.63665 | 31110 ft | 490 kts | 138° |
| 2026-05-06 00:05 | 35.03404 | -119.58663 | 29955 ft | 482 kts | 137° |
| 2026-05-06 00:05 | 35.00741 | -119.56191 | 29390 ft | 479 kts | 137° |
| 2026-05-06 00:05 | 34.98099 | -119.53742 | 28816 ft | 475 kts | 138° |
| 2026-05-06 00:06 | 34.95479 | -119.51312 | 28253 ft | 471 kts | 138° |
| 2026-05-06 00:06 | 34.92886 | -119.48909 | 27700 ft | 467 kts | 138° |
| 2026-05-06 00:06 | 34.90341 | -119.46559 | 27155 ft | 463 kts | 139° |
| 2026-05-06 00:06 | 34.87728 | -119.44210 | 26596 ft | 459 kts | 140° |
| 2026-05-06 00:07 | 34.85158 | -119.41920 | 26040 ft | 455 kts | 140° |
| 2026-05-06 00:07 | 34.82620 | -119.39658 | 25684 ft | 447 kts | 140° |
| 2026-05-06 00:07 | 34.80150 | -119.37458 | 25563 ft | 433 kts | 140° |
| 2026-05-06 00:07 | 34.77751 | -119.35320 | 25389 ft | 421 kts | 140° |
| 2026-05-06 00:08 | 34.75393 | -119.33216 | 24834 ft | 420 kts | 140° |
| 2026-05-06 00:08 | 34.73073 | -119.31156 | 24311 ft | 418 kts | 141° |
| 2026-05-06 00:08 | 34.70689 | -119.29073 | 23836 ft | 414 kts | 141° |
| 2026-05-06 00:08 | 34.68390 | -119.27071 | 23365 ft | 411 kts | 141° |
| 2026-05-06 00:09 | 34.66070 | -119.25049 | 22878 ft | 408 kts | 142° |
| 2026-05-06 00:09 | 34.63767 | -119.23049 | 22397 ft | 405 kts | 142° |
| 2026-05-06 00:09 | 34.61475 | -119.21076 | 21908 ft | 402 kts | 142° |
| 2026-05-06 00:09 | 34.59203 | -119.19119 | 21427 ft | 398 kts | 143° |
| 2026-05-06 00:10 | 34.56956 | -119.17184 | 20966 ft | 394 kts | 143° |
| 2026-05-06 00:10 | 34.54728 | -119.15262 | 20494 ft | 391 kts | 142° |
| 2026-05-06 00:10 | 34.52540 | -119.13321 | 20023 ft | 388 kts | 142° |
| 2026-05-06 00:10 | 34.50377 | -119.11391 | 19559 ft | 385 kts | 142° |
| 2026-05-06 00:11 | 34.48228 | -119.09479 | 19089 ft | 382 kts | 142° |
| 2026-05-06 00:11 | 34.46095 | -119.07587 | 18630 ft | 379 kts | 143° |
| 2026-05-06 00:11 | 34.43973 | -119.05710 | 18158 ft | 376 kts | 143° |
| 2026-05-06 00:11 | 34.41857 | -119.03864 | 17655 ft | 373 kts | 144° |
| 2026-05-06 00:12 | 34.39754 | -119.02045 | 17202 ft | 370 kts | 144° |
| 2026-05-06 00:12 | 34.37672 | -119.00244 | 16758 ft | 367 kts | 144° |
| 2026-05-06 00:12 | 34.35603 | -118.98455 | 16307 ft | 364 kts | 144° |
| 2026-05-06 00:12 | 34.33548 | -118.96675 | 15858 ft | 362 kts | 144° |
| 2026-05-06 00:13 | 34.31536 | -118.94866 | 15413 ft | 359 kts | 142° |
| 2026-05-06 00:13 | 34.29553 | -118.93050 | 14972 ft | 356 kts | 142° |
| 2026-05-06 00:13 | 34.27584 | -118.91252 | 14535 ft | 353 kts | 143° |
| 2026-05-06 00:13 | 34.25633 | -118.89478 | 14224 ft | 346 kts | 143° |
| 2026-05-06 00:14 | 34.23770 | -118.87784 | 14076 ft | 333 kts | 142° |
| 2026-05-06 00:14 | 34.21962 | -118.86118 | 13958 ft | 320 kts | 142° |
| 2026-05-06 00:14 | 34.20211 | -118.84502 | 13690 ft | 314 kts | 142° |
| 2026-05-06 00:14 | 34.18484 | -118.82912 | 13345 ft | 311 kts | 142° |
| 2026-05-06 00:15 | 34.16770 | -118.81336 | 13003 ft | 309 kts | 143° |
| 2026-05-06 00:15 | 34.15073 | -118.79701 | 12658 ft | 309 kts | 138° |
| 2026-05-06 00:15 | 34.13503 | -118.77964 | 12323 ft | 310 kts | 136° |
| 2026-05-06 00:15 | 34.11907 | -118.76167 | 11968 ft | 309 kts | 137° |
| 2026-05-06 00:16 | 34.10329 | -118.74414 | 11642 ft | 308 kts | 137° |
| 2026-05-06 00:16 | 34.08768 | -118.72695 | 11406 ft | 300 kts | 138° |
| 2026-05-06 00:16 | 34.07239 | -118.71024 | 11159 ft | 293 kts | 138° |
| 2026-05-06 00:16 | 34.05737 | -118.69390 | 10897 ft | 290 kts | 138° |
| 2026-05-06 00:17 | 34.04256 | -118.67750 | 10555 ft | 288 kts | 135° |
| 2026-05-06 00:17 | 34.03101 | -118.65790 | 10228 ft | 287 kts | 113° |
| 2026-05-06 00:17 | 34.02627 | -118.63462 | 9770 ft | 287 kts | 97° |
| 2026-05-06 00:17 | 34.02365 | -118.61070 | 9319 ft | 290 kts | 97° |
| 2026-05-06 00:18 | 34.02135 | -118.58643 | 8882 ft | 290 kts | 95° |
| 2026-05-06 00:18 | 34.01967 | -118.56289 | 8697 ft | 280 kts | 94° |
| 2026-05-06 00:18 | 34.01800 | -118.53995 | 8529 ft | 269 kts | 95° |
| 2026-05-06 00:18 | 34.01602 | -118.51796 | 8381 ft | 259 kts | 96° |
| 2026-05-06 00:19 | 34.01400 | -118.49674 | 8175 ft | 252 kts | 96° |
| 2026-05-06 00:19 | 34.01200 | -118.47589 | 7886 ft | 249 kts | 96° |
| 2026-05-06 00:19 | 34.01114 | -118.45519 | 7579 ft | 246 kts | 84° |
| 2026-05-06 00:19 | 34.01377 | -118.43469 | 7265 ft | 244 kts | 78° |
| 2026-05-06 00:20 | 34.01721 | -118.41505 | 6933 ft | 244 kts | 77° |
| 2026-05-06 00:20 | 34.02076 | -118.39506 | 6605 ft | 243 kts | 77° |
| 2026-05-06 00:20 | 34.02426 | -118.37516 | 6255 ft | 242 kts | 78° |
| 2026-05-06 00:20 | 34.02770 | -118.35532 | 5942 ft | 241 kts | 78° |
| 2026-05-06 00:21 | 34.03035 | -118.33545 | 5625 ft | 240 kts | 83° |
| 2026-05-06 00:21 | 34.03216 | -118.31557 | 5304 ft | 238 kts | 84° |
| 2026-05-06 00:21 | 34.03395 | -118.29579 | 5001 ft | 236 kts | 84° |
| 2026-05-06 00:21 | 34.03578 | -118.27621 | 4691 ft | 235 kts | 84° |
| 2026-05-06 00:22 | 34.03694 | -118.25662 | 4499 ft | 234 kts | 93° |
| 2026-05-06 00:22 | 34.03325 | -118.23794 | 4309 ft | 226 kts | 118° |
| 2026-05-06 00:22 | 34.02369 | -118.22360 | 4050 ft | 217 kts | 144° |
| 2026-05-06 00:22 | 34.01039 | -118.21574 | 3739 ft | 212 kts | 169° |
| 2026-05-06 00:23 | 33.99598 | -118.21526 | 3448 ft | 205 kts | 193° |
| 2026-05-06 00:23 | 33.98306 | -118.22149 | 3182 ft | 198 kts | 215° |
| 2026-05-06 00:23 | 33.97334 | -118.23285 | 2917 ft | 194 kts | 236° |
| 2026-05-06 00:23 | 33.96790 | -118.24747 | 2674 ft | 191 kts | 256° |
| 2026-05-06 00:24 | 33.96577 | -118.26313 | 2411 ft | 188 kts | 263° |
| 2026-05-06 00:24 | 33.96435 | -118.27863 | 2167 ft | 183 kts | 263° |
| 2026-05-06 00:24 | 33.96298 | -118.29347 | 1947 ft | 172 kts | 263° |
| 2026-05-06 00:24 | 33.96163 | -118.30725 | 1723 ft | 161 kts | 263° |
| 2026-05-06 00:25 | 33.96034 | -118.32029 | 1480 ft | 152 kts | 263° |
| 2026-05-06 00:25 | 33.95911 | -118.33249 | 1306 ft | 142 kts | 264° |
| 2026-05-06 00:25 | 33.95796 | -118.34399 | 1115 ft | 134 kts | 264° |
| 2026-05-06 00:25 | 33.95686 | -118.35505 | 954 ft | 133 kts | 262° |
| 2026-05-06 00:26 | 33.95575 | -118.36610 | 780 ft | 133 kts | 261° |
| 2026-05-06 00:26 | 33.95462 | -118.37717 | 601 ft | 134 kts | 261° |
| 2026-05-06 00:26 | 33.95349 | -118.38830 | 376 ft | 134 kts | 261° |
| 2026-05-06 00:26 | 33.95239 | -118.39940 | 174 ft | 135 kts | 261° |
| 2026-05-06 00:27 | 33.95124 | -118.41040 | 101 ft | 125 kts | 263° |
| 2026-05-06 00:27 | 33.95045 | -118.41829 | 102 ft | 62 kts | 263° |
| 2026-05-06 00:27 | 33.95009 | -118.42169 | 100 ft | 33 kts | 261° |
| 2026-05-06 00:27 | 33.94946 | -118.42361 | 102 ft | 19 kts | 233° |
| 2026-05-06 00:28 | 33.94890 | -118.42438 | 104 ft | 9 kts | 224° |
| 2026-05-06 00:28 | 33.94876 | -118.42452 | 101 ft | 0 kts | 219° |
| 2026-05-06 00:30 | 33.94858 | -118.42467 | 103 ft | 7 kts | 209° |
| 2026-05-06 00:30 | 33.94801 | -118.42486 | 106 ft | 10 kts | 189° |
| 2026-05-06 00:30 | 33.94709 | -118.42479 | 104 ft | 17 kts | 169° |
| 2026-05-06 00:31 | 33.94669 | -118.42357 | 100 ft | 19 kts | 84° |
| 2026-05-06 00:31 | 33.94687 | -118.42201 | 102 ft | 18 kts | 83° |
| 2026-05-06 00:31 | 33.94701 | -118.42055 | 103 ft | 16 kts | 84° |
| 2026-05-06 00:31 | 33.94714 | -118.41925 | 101 ft | 15 kts | 83° |
| 2026-05-06 00:32 | 33.94725 | -118.41810 | 103 ft | 13 kts | 84° |
| 2026-05-06 00:32 | 33.94735 | -118.41704 | 99 ft | 13 kts | 83° |
| 2026-05-06 00:32 | 33.94747 | -118.41593 | 103 ft | 14 kts | 83° |
| 2026-05-06 00:32 | 33.94759 | -118.41476 | 104 ft | 14 kts | 83° |
| 2026-05-06 00:33 | 33.94782 | -118.41359 | 101 ft | 15 kts | 74° |
| 2026-05-06 00:33 | 33.94797 | -118.41236 | 102 ft | 15 kts | 83° |
| 2026-05-06 00:33 | 33.94810 | -118.41108 | 103 ft | 16 kts | 83° |
| 2026-05-06 00:33 | 33.94824 | -118.40976 | 104 ft | 16 kts | 83° |
| 2026-05-06 00:34 | 33.94780 | -118.40899 | 100 ft | 11 kts | 184° |
| 2026-05-06 00:34 | 33.94710 | -118.40909 | 102 ft | 10 kts | 178° |
| 2026-05-06 00:34 | 33.94649 | -118.40902 | 101 ft | 8 kts | 175° |
| 2026-05-06 00:34 | 33.94598 | -118.40896 | 100 ft | 7 kts | 174° |
| 2026-05-06 00:35 | 33.94559 | -118.40905 | 101 ft | 4 kts | 212° |
| 2026-05-06 00:35 | 33.94549 | -118.40923 | 99 ft | 2 kts | 245° |
| 2026-05-06 00:35 | 33.94545 | -118.40961 | 102 ft | 7 kts | 264° |
| 2026-05-06 00:35 | 33.94542 | -118.40995 | 100 ft | 1 kts | 263° |
| 2026-05-06 00:36 | 33.94542 | -118.40996 | 101 ft | 0 kts | 263° |